Time,TemperatureF,DewpointF,PressureIn,WindDirection,WindDirectionDegrees,WindSpeedMPH,WindSpeedGustMPH,Humidity,HourlyPrecipIn,Conditions,Clouds,dailyrainin,SoftwareType,DateUTC
2013-01-02 00:00:00,46.4,44.3,29.91,NNW,338,0.9,1.1,92,0.00,,,0.00,WUHU216HW,2013-01-02 05:00:00,
2013-01-02 00:01:00,46.4,44.6,29.91,NW,313,0.8,1.1,93,0.00,,,0.00,WUHU216HW,2013-01-02 05:01:00,
2013-01-02 00:02:00,46.4,44.6,29.91,WNW,298,0.8,1.1,93,0.00,,,0.00,WUHU216HW,2013-01-02 05:02:00,
2013-01-02 00:05:00,46.3,44.4,29.91,North,0,0.7,1.1,93,0.00,,,0.00,WUHU216HW,2013-01-02 05:05:00,
2013-01-02 00:06:00,46.3,44.4,29.91,North,352,0.6,1.1,93,0.00,,,0.00,WUHU216HW,2013-01-02 05:06:00,
2013-01-02 00:07:00,46.3,44.4,29.91,North,354,0.5,1.1,93,0.00,,,0.00,WUHU216HW,2013-01-02 05:07:00,
2013-01-02 00:11:00,46.3,44.4,29.91,NW,315,0.9,1.1,93,0.00,,,0.00,WUHU216HW,2013-01-02 05:11:00,
2013-01-02 00:12:00,46.3,44.4,29.92,WNW,293,0.9,1.1,93,0.00,,,0.00,WUHU216HW,2013-01-02 05:12:00,
2013-01-02 00:13:00,46.4,44.6,29.92,NW,315,1.3,1.3,93,0.00,,,0.00,WUHU216HW,2013-01-02 05:13:00,
2013-01-02 00:17:00,46.4,44.6,29.92,NNW,338,1.1,1.3,93,0.00,,,0.00,WUHU216HW,2013-01-02 05:17:00,
2013-01-02 00:18:00,46.4,44.6,29.92,NNW,338,1.1,1.3,93,0.00,,,0.00,WUHU216HW,2013-01-02 05:18:00,
2013-01-02 00:22:00,46.4,44.6,29.92,NNW,338,1.1,1.3,93,0.00,,,0.00,WUHU216HW,2013-01-02 05:22:00,
2013-01-02 00:23:00,46.4,44.6,29.92,NNW,338,1.1,1.1,93,0.00,,,0.00,WUHU216HW,2013-01-02 05:23:00,
2013-01-02 00:43:00,46.4,44.8,29.93,NNW,338,1.3,1.3,94,0.00,,,0.00,WUHU216HW,2013-01-02 05:43:00,
2013-01-02 00:44:00,46.4,44.8,29.93,NNW,338,1.3,1.3,94,0.00,,,0.00,WUHU216HW,2013-01-02 05:44:00,
2013-01-02 00:49:00,46.4,44.6,29.93,North,0,4.7,4.7,93,0.00,,,0.00,WUHU216HW,2013-01-02 05:49:00,
2013-01-02 00:54:00,46.1,43.9,29.93,NNW,338,6.3,8.1,92,0.00,,,0.00,WUHU216HW,2013-01-02 05:54:00,
2013-01-02 00:55:00,45.9,43.7,29.93,WNW,293,7.2,8.1,92,0.00,,,0.00,WUHU216HW,2013-01-02 05:55:00,
2013-01-02 00:59:00,45.0,42.6,29.93,NW,315,7.6,9.8,91,0.00,,,0.00,WUHU216HW,2013-01-02 05:59:00,
2013-01-02 01:00:00,45.0,42.6,29.93,NW,315,7.6,9.8,91,0.00,,,0.00,WUHU216HW,2013-01-02 06:00:00,
2013-01-02 01:01:00,44.6,42.2,29.93,NNW,345,4.3,9.8,91,0.00,,,0.00,WUHU216HW,2013-01-02 06:01:00,
2013-01-02 01:04:00,44.3,41.3,29.94,NNW,332,6.1,9.8,89,0.00,,,0.00,WUHU216HW,2013-01-02 06:04:00,
2013-01-02 01:05:00,44.3,41.3,29.94,NNW,332,6.1,9.8,89,0.00,,,0.00,WUHU216HW,2013-01-02 06:05:00,
2013-01-02 01:08:00,44.1,41.4,29.94,WNW,293,4.7,7.6,90,0.00,,,0.00,WUHU216HW,2013-01-02 06:08:00,
2013-01-02 01:10:00,43.9,41.0,29.94,NW,315,5.4,7.6,89,0.00,,,0.00,WUHU216HW,2013-01-02 06:10:00,
2013-01-02 01:13:00,43.7,41.0,29.94,NNW,346,2.3,5.4,90,0.00,,,0.00,WUHU216HW,2013-01-02 06:13:00,
2013-01-02 01:15:00,43.7,41.0,29.93,NNW,338,3.4,5.4,90,0.00,,,0.00,WUHU216HW,2013-01-02 06:15:00,
2013-01-02 01:16:00,43.6,40.9,29.93,NNW,346,3.3,5.4,90,0.00,,,0.00,WUHU216HW,2013-01-02 06:16:00,
2013-01-02 01:19:00,43.6,40.9,29.93,NNW,329,2.8,5.4,90,0.00,,,0.00,WUHU216HW,2013-01-02 06:19:00,
2013-01-02 01:21:00,43.6,40.9,29.94,NW,319,1.0,4.0,90,0.00,,,0.00,WUHU216HW,2013-01-02 06:21:00,
2013-01-02 01:22:00,43.6,40.9,29.94,North,0,1.1,4.0,90,0.00,,,0.00,WUHU216HW,2013-01-02 06:22:00,
2013-01-02 01:24:00,43.6,40.9,29.95,NW,315,1.8,4.0,90,0.00,,,0.00,WUHU216HW,2013-01-02 06:24:00,
2013-01-02 01:26:00,43.6,40.9,29.95,NW,315,1.8,3.4,90,0.00,,,0.00,WUHU216HW,2013-01-02 06:26:00,
2013-01-02 01:27:00,43.6,40.9,29.95,NW,315,1.5,3.4,90,0.00,,,0.00,WUHU216HW,2013-01-02 06:27:00,
2013-01-02 01:28:00,43.6,40.9,29.95,NW,323,1.0,2.2,90,0.00,,,0.00,WUHU216HW,2013-01-02 06:28:00,
2013-01-02 01:31:00,43.6,40.9,29.95,NW,315,2.2,2.2,90,0.00,,,0.00,WUHU216HW,2013-01-02 06:31:00,
2013-01-02 01:33:00,43.6,40.9,29.95,NW,315,3.4,3.4,90,0.00,,,0.00,WUHU216HW,2013-01-02 06:33:00,
2013-01-02 01:34:00,43.4,40.7,29.94,NW,315,3.4,3.4,90,0.00,,,0.00,WUHU216HW,2013-01-02 06:34:00,
2013-01-02 01:36:00,43.2,40.8,29.94,NNW,338,3.7,4.0,91,0.00,,,0.00,WUHU216HW,2013-01-02 06:36:00,
2013-01-02 01:38:00,43.2,40.8,29.95,NNW,338,4.5,4.5,91,0.00,,,0.00,WUHU216HW,2013-01-02 06:38:00,
2013-01-02 01:39:00,43.2,40.8,29.95,NNW,346,3.7,4.5,91,0.00,,,0.00,WUHU216HW,2013-01-02 06:39:00,
2013-01-02 01:43:00,43.0,40.6,29.95,WNW,288,2.7,5.4,91,0.00,,,0.00,WUHU216HW,2013-01-02 06:43:00,
2013-01-02 01:44:00,43.0,40.6,29.95,NNW,338,2.5,5.4,91,0.00,,,0.00,WUHU216HW,2013-01-02 06:44:00,
2013-01-02 01:45:00,43.0,40.6,29.95,NNW,338,2.3,5.4,91,0.00,,,0.00,WUHU216HW,2013-01-02 06:45:00,
2013-01-02 01:48:00,42.8,40.4,29.95,North,0,1.8,5.4,91,0.00,,,0.00,WUHU216HW,2013-01-02 06:48:00,
2013-01-02 01:49:00,42.8,40.4,29.95,North,0,1.6,5.4,91,0.00,,,0.00,WUHU216HW,2013-01-02 06:49:00,
2013-01-02 01:50:00,42.8,40.4,29.95,North,0,1.6,4.3,91,0.00,,,0.00,WUHU216HW,2013-01-02 06:50:00,
2013-01-02 01:51:00,42.8,40.4,29.95,NNW,338,1.8,4.0,91,0.00,,,0.00,WUHU216HW,2013-01-02 06:51:00,
2013-01-02 01:53:00,42.8,40.4,29.96,North,0,1.1,2.5,91,0.00,,,0.00,WUHU216HW,2013-01-02 06:53:00,
2013-01-02 01:55:00,42.8,40.4,29.96,NW,315,1.1,2.2,91,0.00,,,0.00,WUHU216HW,2013-01-02 06:55:00,
2013-01-02 01:56:00,42.7,40.2,29.96,NW,315,2.5,2.5,91,0.00,,,0.00,WUHU216HW,2013-01-02 06:56:00,
2013-01-02 01:58:00,42.7,40.2,29.96,NNW,338,2.5,2.5,91,0.00,,,0.00,WUHU216HW,2013-01-02 06:58:00,
2013-01-02 02:00:00,42.7,40.2,29.95,North,353,1.7,2.5,91,0.00,,,0.00,WUHU216HW,2013-01-02 07:00:00,
2013-01-02 02:01:00,42.7,40.2,29.95,NNW,338,1.6,2.5,91,0.00,,,0.00,WUHU216HW,2013-01-02 07:01:00,
2013-01-02 02:02:00,42.7,40.2,29.96,NNW,338,1.6,2.5,91,0.00,,,0.00,WUHU216HW,2013-01-02 07:02:00,
2013-01-02 02:04:00,42.7,40.2,29.96,North,0,1.1,2.5,91,0.00,,,0.00,WUHU216HW,2013-01-02 07:04:00,
2013-01-02 02:05:00,42.5,40.1,29.96,North,0,1.8,2.5,91,0.00,,,0.00,WUHU216HW,2013-01-02 07:05:00,
2013-01-02 02:07:00,42.7,40.2,29.96,North,0,0.4,2.5,91,0.00,,,0.00,WUHU216HW,2013-01-02 07:07:00,
2013-01-02 02:09:00,42.5,40.1,29.96,NNE,15,1.1,2.0,91,0.00,,,0.00,WUHU216HW,2013-01-02 07:09:00,
2013-01-02 02:10:00,42.5,40.1,29.96,NNW,338,0.4,2.0,91,0.00,,,0.00,WUHU216HW,2013-01-02 07:10:00,
2013-01-02 02:12:00,42.5,40.1,29.96,North,0,2.5,2.5,91,0.00,,,0.00,WUHU216HW,2013-01-02 07:12:00,
2013-01-02 02:15:00,42.5,40.1,29.96,NNW,338,1.5,2.5,91,0.00,,,0.00,WUHU216HW,2013-01-02 07:15:00,
2013-01-02 02:18:00,42.3,39.9,29.96,North,0,1.6,3.1,91,0.00,,,0.00,WUHU216HW,2013-01-02 07:18:00,
2013-01-02 02:19:00,42.3,39.9,29.97,North,0,2.7,3.1,91,0.00,,,0.00,WUHU216HW,2013-01-02 07:19:00,
2013-01-02 02:21:00,42.1,39.7,29.96,North,0,2.1,3.1,91,0.00,,,0.00,WUHU216HW,2013-01-02 07:21:00,
2013-01-02 02:23:00,42.1,39.7,29.96,NNE,23,1.1,3.1,91,0.00,,,0.00,WUHU216HW,2013-01-02 07:23:00,
2013-01-02 02:24:00,42.1,39.7,29.96,NNE,23,1.1,3.1,91,0.00,,,0.00,WUHU216HW,2013-01-02 07:24:00,
2013-01-02 02:26:00,42.1,39.7,29.96,North,358,1.2,2.7,91,0.00,,,0.00,WUHU216HW,2013-01-02 07:26:00,
2013-01-02 02:29:00,42.1,39.7,29.96,NNE,13,1.4,2.2,91,0.00,,,0.00,WUHU216HW,2013-01-02 07:29:00,
2013-01-02 02:31:00,42.1,39.7,29.96,NNW,338,1.8,2.2,91,0.00,,,0.00,WUHU216HW,2013-01-02 07:31:00,
2013-01-02 02:35:00,41.9,39.5,29.96,NNE,25,2.3,2.5,91,0.00,,,0.00,WUHU216HW,2013-01-02 07:35:00,
2013-01-02 02:36:00,41.9,39.5,29.96,North,0,2.5,2.5,91,0.00,,,0.00,WUHU216HW,2013-01-02 07:36:00,
2013-01-02 02:37:00,41.9,39.5,29.96,North,354,1.7,2.5,91,0.00,,,0.00,WUHU216HW,2013-01-02 07:37:00,
2013-01-02 02:40:00,41.8,39.3,29.95,North,0,3.6,3.6,91,0.00,,,0.00,WUHU216HW,2013-01-02 07:40:00,
2013-01-02 02:41:00,41.8,39.3,29.95,North,0,2.9,3.6,91,0.00,,,0.00,WUHU216HW,2013-01-02 07:41:00,
2013-01-02 02:42:00,41.8,39.3,29.95,North,0,2.7,3.6,91,0.00,,,0.00,WUHU216HW,2013-01-02 07:42:00,
2013-01-02 02:45:00,41.8,39.1,29.95,NNE,23,2.2,3.8,90,0.00,,,0.00,WUHU216HW,2013-01-02 07:45:00,
2013-01-02 02:47:00,41.6,38.9,29.95,NE,45,1.1,3.8,90,0.00,,,0.00,WUHU216HW,2013-01-02 07:47:00,
2013-01-02 02:48:00,41.6,38.9,29.95,North,0,1.6,3.8,90,0.00,,,0.00,WUHU216HW,2013-01-02 07:48:00,
2013-01-02 02:51:00,41.4,38.7,29.95,North,0,1.0,5.1,90,0.00,,,0.00,WUHU216HW,2013-01-02 07:51:00,
2013-01-02 02:53:00,41.4,38.7,29.95,NNW,338,1.6,5.1,90,0.00,,,0.00,WUHU216HW,2013-01-02 07:53:00,
2013-01-02 02:56:00,41.4,38.7,29.95,NNW,348,1.0,5.1,90,0.00,,,0.00,WUHU216HW,2013-01-02 07:56:00,
2013-01-02 02:58:00,41.4,38.7,29.95,North,0,1.3,5.1,90,0.00,,,0.00,WUHU216HW,2013-01-02 07:58:00,
2013-01-02 02:59:00,41.4,38.7,29.95,North,0,1.3,1.8,90,0.00,,,0.00,WUHU216HW,2013-01-02 07:59:00,
2013-01-02 03:01:00,41.4,38.7,29.95,North,0,2.2,2.2,90,0.00,,,0.00,WUHU216HW,2013-01-02 08:01:00,
2013-01-02 03:03:00,41.4,38.7,29.95,NNW,331,2.4,3.1,90,0.00,,,0.00,WUHU216HW,2013-01-02 08:03:00,
2013-01-02 03:04:00,41.4,38.7,29.95,North,0,2.2,3.1,90,0.00,,,0.00,WUHU216HW,2013-01-02 08:04:00,
2013-01-02 03:05:00,41.4,38.7,29.95,North,0,2.2,3.1,90,0.00,,,0.00,WUHU216HW,2013-01-02 08:05:00,
2013-01-02 03:07:00,41.4,38.7,29.95,North,350,2.7,3.1,90,0.00,,,0.00,WUHU216HW,2013-01-02 08:07:00,
2013-01-02 03:09:00,41.4,38.7,29.95,North,6,1.3,3.1,90,0.00,,,0.00,WUHU216HW,2013-01-02 08:09:00,
2013-01-02 03:10:00,41.4,38.7,29.95,North,0,2.5,3.1,90,0.00,,,0.00,WUHU216HW,2013-01-02 08:10:00,
2013-01-02 03:12:00,41.2,38.5,29.95,NNE,15,1.1,2.9,90,0.00,,,0.00,WUHU216HW,2013-01-02 08:12:00,
2013-01-02 03:14:00,41.2,38.5,29.95,NNW,338,0.3,2.9,90,0.00,,,0.00,WUHU216HW,2013-01-02 08:14:00,
2013-01-02 03:15:00,41.2,38.5,29.95,North,0,0.9,2.9,90,0.00,,,0.00,WUHU216HW,2013-01-02 08:15:00,
2013-01-02 03:16:00,41.2,38.5,29.95,North,353,0.6,2.5,90,0.00,,,0.00,WUHU216HW,2013-01-02 08:16:00,
2013-01-02 03:18:00,41.2,38.5,29.95,North,0,0.4,2.5,90,0.00,,,0.00,WUHU216HW,2013-01-02 08:18:00,
2013-01-02 03:20:00,41.2,38.5,29.96,North,0,1.1,2.2,90,0.00,,,0.00,WUHU216HW,2013-01-02 08:20:00,
2013-01-02 03:21:00,41.2,38.5,29.95,North,0,1.8,1.8,90,0.00,,,0.00,WUHU216HW,2013-01-02 08:21:00,
2013-01-02 03:22:00,41.2,38.5,29.96,NNW,338,1.8,1.8,90,0.00,,,0.00,WUHU216HW,2013-01-02 08:22:00,
2013-01-02 03:24:00,41.2,38.5,29.97,North,0,1.2,1.8,90,0.00,,,0.00,WUHU216HW,2013-01-02 08:24:00,
2013-01-02 03:25:00,41.2,38.5,29.96,North,0,0.8,1.8,90,0.00,,,0.00,WUHU216HW,2013-01-02 08:25:00,
2013-01-02 03:27:00,41.0,38.3,29.96,North,0,2.5,2.5,90,0.00,,,0.00,WUHU216HW,2013-01-02 08:27:00,
2013-01-02 03:29:00,41.0,38.3,29.96,NNE,15,1.3,2.5,90,0.00,,,0.00,WUHU216HW,2013-01-02 08:29:00,
2013-01-02 03:30:00,41.0,38.3,29.96,North,7,0.6,2.5,90,0.00,,,0.00,WUHU216HW,2013-01-02 08:30:00,
2013-01-02 03:32:00,41.0,38.3,29.96,North,0,0.9,2.5,90,0.00,,,0.00,WUHU216HW,2013-01-02 08:32:00,
2013-01-02 03:33:00,40.9,38.2,29.96,NNE,23,0.7,2.5,90,0.00,,,0.00,WUHU216HW,2013-01-02 08:33:00,
2013-01-02 03:34:00,40.9,38.2,29.96,NNE,23,0.7,2.5,90,0.00,,,0.00,WUHU216HW,2013-01-02 08:34:00,
2013-01-02 03:35:00,40.9,38.2,29.96,NNE,23,0.6,2.5,90,0.00,,,0.00,WUHU216HW,2013-01-02 08:35:00,
2013-01-02 03:38:00,40.7,38.0,29.95,NNE,23,2.7,2.7,90,0.00,,,0.00,WUHU216HW,2013-01-02 08:38:00,
2013-01-02 03:39:00,40.7,38.0,29.95,NNE,23,3.1,3.1,90,0.00,,,0.00,WUHU216HW,2013-01-02 08:39:00,
2013-01-02 03:40:00,40.7,38.0,29.95,NNE,15,2.4,3.1,90,0.00,,,0.00,WUHU216HW,2013-01-02 08:40:00,
2013-01-02 03:41:00,40.7,38.0,29.95,North,9,2.1,3.1,90,0.00,,,0.00,WUHU216HW,2013-01-02 08:41:00,
2013-01-02 03:43:00,40.7,38.0,29.95,North,0,1.5,3.1,90,0.00,,,0.00,WUHU216HW,2013-01-02 08:43:00,
2013-01-02 03:44:00,40.7,38.0,29.96,NW,315,1.1,3.1,90,0.00,,,0.00,WUHU216HW,2013-01-02 08:44:00,
2013-01-02 03:46:00,40.7,38.0,29.96,NNW,338,0.9,3.1,90,0.00,,,0.00,WUHU216HW,2013-01-02 08:46:00,
2013-01-02 03:48:00,40.5,37.8,29.96,NNE,32,0.6,3.1,90,0.00,,,0.00,WUHU216HW,2013-01-02 08:48:00,
2013-01-02 03:49:00,40.5,37.8,29.97,North,0,1.3,2.9,90,0.00,,,0.00,WUHU216HW,2013-01-02 08:49:00,
2013-01-02 03:51:00,40.5,37.8,29.97,NNW,331,1.1,2.0,90,0.00,,,0.00,WUHU216HW,2013-01-02 08:51:00,
2013-01-02 03:52:00,40.5,37.8,29.97,NW,323,0.6,1.6,90,0.00,,,0.00,WUHU216HW,2013-01-02 08:52:00,
2013-01-02 03:55:00,40.3,37.6,29.97,NNE,23,1.8,1.8,90,0.00,,,0.00,WUHU216HW,2013-01-02 08:55:00,
2013-01-02 03:56:00,40.3,37.6,29.96,NNE,14,1.5,1.8,90,0.00,,,0.00,WUHU216HW,2013-01-02 08:56:00,
2013-01-02 03:57:00,40.3,37.6,29.96,NNW,338,1.1,1.8,90,0.00,,,0.00,WUHU216HW,2013-01-02 08:57:00,
2013-01-02 04:00:00,40.3,37.6,29.95,NNW,332,1.5,1.8,90,0.00,,,0.00,WUHU216HW,2013-01-02 09:00:00,
2013-01-02 04:01:00,40.1,37.4,29.95,WNW,293,1.6,1.8,90,0.00,,,0.00,WUHU216HW,2013-01-02 09:01:00,
2013-01-02 04:02:00,40.1,37.4,29.95,WNW,293,1.6,1.8,90,0.00,,,0.00,WUHU216HW,2013-01-02 09:02:00,
2013-01-02 04:05:00,40.1,37.7,29.95,NNW,338,0.9,1.8,91,0.00,,,0.00,WUHU216HW,2013-01-02 09:05:00,
2013-01-02 04:07:00,40.1,37.4,29.95,North,0,1.3,1.8,90,0.00,,,0.00,WUHU216HW,2013-01-02 09:07:00,
2013-01-02 04:09:00,40.1,37.4,29.95,NNE,23,2.7,2.7,90,0.00,,,0.00,WUHU216HW,2013-01-02 09:09:00,
2013-01-02 04:12:00,40.0,37.3,29.97,WNW,293,1.3,2.7,90,0.00,,,0.00,WUHU216HW,2013-01-02 09:12:00,
2013-01-02 04:13:00,40.0,37.5,29.97,WNW,303,1.2,2.7,91,0.00,,,0.00,WUHU216HW,2013-01-02 09:13:00,
2013-01-02 04:14:00,40.0,37.5,29.97,NW,315,1.1,2.7,91,0.00,,,0.00,WUHU216HW,2013-01-02 09:14:00,
2013-01-02 04:18:00,40.0,37.5,29.97,NW,315,1.1,2.7,91,0.00,,,0.00,WUHU216HW,2013-01-02 09:18:00,
2013-01-02 04:19:00,40.0,37.5,29.97,NW,315,1.1,1.3,91,0.00,,,0.00,WUHU216HW,2013-01-02 09:19:00,
2013-01-02 04:20:00,40.0,37.5,29.97,NW,315,1.1,1.3,91,0.00,,,0.00,WUHU216HW,2013-01-02 09:20:00,
2013-01-02 04:42:00,40.0,37.5,29.96,NNW,338,1.1,1.1,91,0.00,,,0.00,WUHU216HW,2013-01-02 09:42:00,
2013-01-02 04:43:00,40.0,37.5,29.96,NNW,338,1.1,1.1,91,0.00,,,0.00,WUHU216HW,2013-01-02 09:43:00,
2013-01-02 04:44:00,40.0,37.5,29.96,NNW,332,0.8,1.1,91,0.00,,,0.00,WUHU216HW,2013-01-02 09:44:00,
2013-01-02 04:48:00,40.0,37.5,29.96,NW,308,1.5,2.0,91,0.00,,,0.00,WUHU216HW,2013-01-02 09:48:00,
2013-01-02 04:49:00,40.0,37.5,29.96,NNW,338,1.8,2.0,91,0.00,,,0.00,WUHU216HW,2013-01-02 09:49:00,
2013-01-02 04:53:00,40.0,37.5,29.97,North,349,3.9,4.0,91,0.00,,,0.00,WUHU216HW,2013-01-02 09:53:00,
2013-01-02 04:54:00,40.0,37.5,29.97,NNW,338,2.7,4.0,91,0.00,,,0.00,WUHU216HW,2013-01-02 09:54:00,
2013-01-02 04:59:00,40.0,37.5,29.97,NNW,338,1.1,4.0,91,0.00,,,0.00,WUHU216HW,2013-01-02 09:59:00,
2013-01-02 05:01:00,40.0,37.5,29.97,NNW,348,1.9,4.0,91,0.00,,,0.00,WUHU216HW,2013-01-02 10:01:00,
2013-01-02 05:04:00,40.0,37.5,29.97,NNW,338,3.1,3.6,91,0.00,,,0.00,WUHU216HW,2013-01-02 10:04:00,
2013-01-02 05:05:00,40.0,37.5,29.97,North,0,3.4,3.4,91,0.00,,,0.00,WUHU216HW,2013-01-02 10:05:00,
2013-01-02 05:07:00,40.0,37.5,29.97,North,351,2.7,3.4,91,0.00,,,0.00,WUHU216HW,2013-01-02 10:07:00,
2013-01-02 05:09:00,40.0,37.5,29.97,North,349,1.7,3.4,91,0.00,,,0.00,WUHU216HW,2013-01-02 10:09:00,
2013-01-02 05:10:00,40.0,37.5,29.97,NNW,347,1.4,3.4,91,0.00,,,0.00,WUHU216HW,2013-01-02 10:10:00,
2013-01-02 05:12:00,40.0,37.5,29.97,NNW,345,2.3,3.4,91,0.00,,,0.00,WUHU216HW,2013-01-02 10:12:00,
2013-01-02 05:14:00,40.0,37.5,29.98,NW,315,2.2,3.4,91,0.00,,,0.00,WUHU216HW,2013-01-02 10:14:00,
2013-01-02 05:15:00,40.0,37.5,29.98,NNW,338,2.7,3.1,91,0.00,,,0.00,WUHU216HW,2013-01-02 10:15:00,
2013-01-02 05:17:00,40.0,37.5,29.97,North,0,3.1,3.1,91,0.00,,,0.00,WUHU216HW,2013-01-02 10:17:00,
2013-01-02 05:18:00,40.0,37.5,29.97,North,0,4.5,4.5,91,0.00,,,0.00,WUHU216HW,2013-01-02 10:18:00,
2013-01-02 05:19:00,40.0,37.5,29.97,North,352,3.5,4.5,91,0.00,,,0.00,WUHU216HW,2013-01-02 10:19:00,
2013-01-02 05:21:00,40.0,37.5,29.97,NNW,338,1.9,4.5,91,0.00,,,0.00,WUHU216HW,2013-01-02 10:21:00,
2013-01-02 05:23:00,40.0,37.5,29.97,NNW,338,1.5,4.5,91,0.00,,,0.00,WUHU216HW,2013-01-02 10:23:00,
2013-01-02 05:24:00,40.0,37.5,29.97,North,0,1.8,4.5,91,0.00,,,0.00,WUHU216HW,2013-01-02 10:24:00,
2013-01-02 05:25:00,40.0,37.5,29.97,North,351,1.5,4.5,91,0.00,,,0.00,WUHU216HW,2013-01-02 10:25:00,
2013-01-02 05:27:00,40.0,37.5,29.97,NW,315,3.1,4.5,91,0.00,,,0.00,WUHU216HW,2013-01-02 10:27:00,
2013-01-02 05:28:00,40.0,37.5,29.98,NW,315,2.8,4.5,91,0.00,,,0.00,WUHU216HW,2013-01-02 10:28:00,
2013-01-02 05:29:00,40.0,37.5,29.98,NNW,328,1.8,3.1,91,0.00,,,0.00,WUHU216HW,2013-01-02 10:29:00,
2013-01-02 05:31:00,40.0,37.5,29.98,NW,310,2.8,3.4,91,0.00,,,0.00,WUHU216HW,2013-01-02 10:31:00,
2013-01-02 05:32:00,40.0,37.5,29.98,North,0,2.2,3.4,91,0.00,,,0.00,WUHU216HW,2013-01-02 10:32:00,
2013-01-02 05:33:00,40.0,37.5,29.98,NW,315,3.1,3.4,91,0.00,,,0.00,WUHU216HW,2013-01-02 10:33:00,
2013-01-02 05:34:00,40.0,37.5,29.98,NW,315,2.4,3.4,91,0.00,,,0.00,WUHU216HW,2013-01-02 10:34:00,
2013-01-02 05:37:00,40.0,37.5,29.97,NW,325,2.3,3.4,91,0.00,,,0.00,WUHU216HW,2013-01-02 10:37:00,
2013-01-02 05:38:00,39.8,37.4,29.98,WNW,293,4.0,4.0,91,0.00,,,0.00,WUHU216HW,2013-01-02 10:38:00,
2013-01-02 05:39:00,39.8,37.4,29.98,WNW,297,2.5,4.0,91,0.00,,,0.00,WUHU216HW,2013-01-02 10:39:00,
2013-01-02 05:42:00,39.8,37.4,29.98,NW,315,3.8,5.4,91,0.00,,,0.00,WUHU216HW,2013-01-02 10:42:00,
2013-01-02 05:43:00,39.8,37.4,29.98,NW,325,1.5,5.4,91,0.00,,,0.00,WUHU216HW,2013-01-02 10:43:00,
2013-01-02 05:44:00,39.8,37.4,29.98,NW,315,2.2,5.4,91,0.00,,,0.00,WUHU216HW,2013-01-02 10:44:00,
2013-01-02 05:48:00,39.8,37.4,29.98,NW,315,3.8,5.4,91,0.00,,,0.00,WUHU216HW,2013-01-02 10:48:00,
2013-01-02 05:49:00,39.8,37.1,29.98,NW,315,3.3,5.4,90,0.00,,,0.00,WUHU216HW,2013-01-02 10:49:00,
2013-01-02 05:54:00,39.6,37.2,29.98,North,0,2.0,4.5,91,0.00,,,0.00,WUHU216HW,2013-01-02 10:54:00,
2013-01-02 05:55:00,39.6,36.9,29.99,NNW,338,2.0,4.5,90,0.00,,,0.00,WUHU216HW,2013-01-02 10:55:00,
2013-01-02 05:59:00,39.6,36.9,29.99,North,351,1.1,4.5,90,0.00,,,0.00,WUHU216HW,2013-01-02 10:59:00,
2013-01-02 06:00:00,39.6,36.9,29.99,NNW,338,0.9,4.5,90,0.00,,,0.00,WUHU216HW,2013-01-02 11:00:00,
2013-01-02 06:01:00,39.6,36.9,29.99,NNW,338,0.9,4.0,90,0.00,,,0.00,WUHU216HW,2013-01-02 11:01:00,
2013-01-02 06:04:00,39.6,36.9,29.99,NNW,338,0.9,4.0,90,0.00,,,0.00,WUHU216HW,2013-01-02 11:04:00,
2013-01-02 06:05:00,39.6,36.9,29.99,NNW,338,0.9,4.0,90,0.00,,,0.00,WUHU216HW,2013-01-02 11:05:00,
2013-01-02 06:06:00,39.6,36.9,29.99,NNW,338,0.9,4.0,90,0.00,,,0.00,WUHU216HW,2013-01-02 11:06:00,
2013-01-02 06:29:00,39.2,36.5,30.00,NNE,23,1.1,1.1,90,0.00,,,0.00,WUHU216HW,2013-01-02 11:29:00,
2013-01-02 06:30:00,39.2,36.5,30.00,NNE,23,1.1,1.1,90,0.00,,,0.00,WUHU216HW,2013-01-02 11:30:00,
2013-01-02 06:34:00,39.2,36.3,30.00,NNW,338,3.2,6.7,89,0.00,,,0.00,WUHU216HW,2013-01-02 11:34:00,
2013-01-02 06:35:00,39.2,36.3,30.00,NNW,338,3.2,6.7,89,0.00,,,0.00,WUHU216HW,2013-01-02 11:35:00,
2013-01-02 06:39:00,39.2,36.3,29.99,NNW,338,2.9,6.7,89,0.00,,,0.00,WUHU216HW,2013-01-02 11:39:00,
2013-01-02 06:40:00,39.2,36.3,29.99,NNW,348,2.7,6.7,89,0.00,,,0.00,WUHU216HW,2013-01-02 11:40:00,
2013-01-02 06:41:00,39.2,36.3,29.99,NNW,348,2.7,6.7,89,0.00,,,0.00,WUHU216HW,2013-01-02 11:41:00,
2013-01-02 06:46:00,39.1,36.1,29.99,NNW,338,3.4,5.1,89,0.00,,,0.00,WUHU216HW,2013-01-02 11:46:00,
2013-01-02 06:47:00,39.1,36.1,29.99,NNW,338,2.5,5.1,89,0.00,,,0.00,WUHU216HW,2013-01-02 11:47:00,
2013-01-02 06:51:00,39.1,35.8,30.00,NNW,338,7.6,7.6,88,0.00,,,0.00,WUHU216HW,2013-01-02 11:51:00,
2013-01-02 06:52:00,39.1,35.8,30.00,NNW,338,7.6,7.6,88,0.00,,,0.00,WUHU216HW,2013-01-02 11:52:00,
2013-01-02 06:54:00,39.1,35.8,30.00,NNW,346,3.3,7.6,88,0.00,,,0.00,WUHU216HW,2013-01-02 11:54:00,
2013-01-02 06:57:00,38.9,35.7,30.00,North,0,6.0,7.6,88,0.00,,,0.00,WUHU216HW,2013-01-02 11:57:00,
2013-01-02 06:58:00,38.9,35.7,30.00,North,0,4.4,7.6,88,0.00,,,0.00,WUHU216HW,2013-01-02 11:58:00,
2013-01-02 06:59:00,38.9,35.7,30.00,NNW,338,4.0,7.6,88,0.00,,,0.00,WUHU216HW,2013-01-02 11:59:00,
2013-01-02 07:02:00,38.9,35.7,30.00,North,0,6.7,6.7,88,0.00,,,0.00,WUHU216HW,2013-01-02 12:02:00,
2013-01-02 07:03:00,38.9,35.7,30.00,North,350,6.3,6.7,88,0.00,,,0.00,WUHU216HW,2013-01-02 12:03:00,
2013-01-02 07:04:00,38.9,35.7,30.00,NNW,338,3.8,6.7,88,0.00,,,0.00,WUHU216HW,2013-01-02 12:04:00,
2013-01-02 07:07:00,38.7,35.5,30.00,NNE,27,4.2,6.7,88,0.00,,,0.00,WUHU216HW,2013-01-02 12:07:00,
2013-01-02 07:08:00,38.7,35.5,30.00,NNE,27,4.2,6.7,88,0.00,,,0.00,WUHU216HW,2013-01-02 12:08:00,
2013-01-02 07:09:00,38.7,35.5,30.00,North,356,3.0,6.7,88,0.00,,,0.00,WUHU216HW,2013-01-02 12:09:00,
2013-01-02 07:13:00,38.7,35.5,30.01,North,0,5.4,5.4,88,0.00,,,0.00,WUHU216HW,2013-01-02 12:13:00,
2013-01-02 07:14:00,38.7,35.5,30.01,North,0,4.2,5.4,88,0.00,,,0.00,WUHU216HW,2013-01-02 12:14:00,
2013-01-02 07:18:00,38.5,35.3,30.02,NNW,346,2.4,5.4,88,0.00,,,0.00,WUHU216HW,2013-01-02 12:18:00,
2013-01-02 07:19:00,38.5,35.3,30.02,NNW,346,2.4,5.4,88,0.00,,,0.00,WUHU216HW,2013-01-02 12:19:00,
2013-01-02 07:24:00,38.5,35.3,30.02,NNW,343,2.3,4.7,88,0.00,,,0.00,WUHU216HW,2013-01-02 12:24:00,
2013-01-02 07:25:00,38.5,35.3,30.02,NNE,23,4.0,4.7,88,0.00,,,0.00,WUHU216HW,2013-01-02 12:25:00,
2013-01-02 07:29:00,38.5,35.3,30.01,North,0,3.4,6.5,88,0.00,,,0.00,WUHU216HW,2013-01-02 12:29:00,
2013-01-02 07:30:00,38.5,35.3,30.01,North,350,3.1,6.5,88,0.00,,,0.00,WUHU216HW,2013-01-02 12:30:00,
2013-01-02 07:34:00,38.5,35.3,30.00,NW,324,3.5,6.5,88,0.00,,,0.00,WUHU216HW,2013-01-02 12:34:00,
2013-01-02 07:35:00,38.5,35.3,30.00,NNE,23,5.6,6.5,88,0.00,,,0.00,WUHU216HW,2013-01-02 12:35:00,
2013-01-02 07:36:00,38.5,35.3,30.01,North,8,4.2,6.5,88,0.00,,,0.00,WUHU216HW,2013-01-02 12:36:00,
2013-01-02 07:40:00,38.5,34.9,30.01,NNW,347,3.5,7.2,87,0.00,,,0.00,WUHU216HW,2013-01-02 12:40:00,
2013-01-02 07:41:00,38.5,34.9,30.01,North,0,2.5,7.2,87,0.00,,,0.00,WUHU216HW,2013-01-02 12:41:00,
2013-01-02 07:42:00,38.5,34.9,30.01,North,0,2.0,7.2,87,0.00,,,0.00,WUHU216HW,2013-01-02 12:42:00,
2013-01-02 07:45:00,38.5,35.3,30.02,NNW,338,3.6,7.2,88,0.00,,,0.00,WUHU216HW,2013-01-02 12:45:00,
2013-01-02 07:46:00,38.5,35.3,30.02,NNW,328,3.0,7.2,88,0.00,,,0.00,WUHU216HW,2013-01-02 12:46:00,
2013-01-02 07:47:00,38.5,34.9,30.02,NNW,338,4.3,4.7,87,0.00,,,0.00,WUHU216HW,2013-01-02 12:47:00,
2013-01-02 07:51:00,38.5,34.9,30.02,North,0,3.8,4.7,87,0.00,,,0.00,WUHU216HW,2013-01-02 12:51:00,
2013-01-02 07:52:00,38.3,34.7,30.02,North,351,3.3,4.7,87,0.00,,,0.00,WUHU216HW,2013-01-02 12:52:00,
2013-01-02 07:54:00,38.5,35.3,30.02,NNE,23,4.7,4.7,88,0.00,,,0.00,WUHU216HW,2013-01-02 12:54:00,
2013-01-02 07:57:00,38.3,35.1,30.02,NNW,338,3.4,4.7,88,0.00,,,0.00,WUHU216HW,2013-01-02 12:57:00,
2013-01-02 07:58:00,38.3,35.1,30.03,NNW,330,2.6,4.7,88,0.00,,,0.00,WUHU216HW,2013-01-02 12:58:00,
2013-01-02 07:59:00,38.3,35.1,30.03,NW,315,1.5,4.7,88,0.00,,,0.00,WUHU216HW,2013-01-02 12:59:00,
2013-01-02 08:01:00,38.3,35.1,30.03,North,351,3.0,4.7,88,0.00,,,0.00,WUHU216HW,2013-01-02 13:01:00,
2013-01-02 08:02:00,38.3,35.1,30.02,North,0,2.0,4.7,88,0.00,,,0.00,WUHU216HW,2013-01-02 13:02:00,
2013-01-02 08:04:00,38.3,35.1,30.02,North,0,5.4,5.4,88,0.00,,,0.00,WUHU216HW,2013-01-02 13:04:00,
2013-01-02 08:06:00,38.3,35.1,30.02,North,0,2.6,5.4,88,0.00,,,0.00,WUHU216HW,2013-01-02 13:06:00,
2013-01-02 08:08:00,38.3,35.1,30.03,NNW,338,3.1,5.4,88,0.00,,,0.00,WUHU216HW,2013-01-02 13:08:00,
2013-01-02 08:09:00,38.3,35.1,30.03,NNW,346,2.4,5.4,88,0.00,,,0.00,WUHU216HW,2013-01-02 13:09:00,
2013-01-02 08:13:00,38.2,34.9,30.03,NNW,346,4.7,6.3,88,0.00,,,0.00,WUHU216HW,2013-01-02 13:13:00,
2013-01-02 08:14:00,38.2,34.9,30.03,NNW,338,5.1,6.3,88,0.00,,,0.00,WUHU216HW,2013-01-02 13:14:00,
2013-01-02 08:15:00,38.2,34.9,30.03,NNW,338,5.1,6.3,88,0.00,,,0.00,WUHU216HW,2013-01-02 13:15:00,
2013-01-02 08:18:00,38.2,34.9,30.03,NNW,333,4.9,6.3,88,0.00,,,0.00,WUHU216HW,2013-01-02 13:18:00,
2013-01-02 08:20:00,38.2,34.9,30.03,NNW,338,2.6,6.3,88,0.00,,,0.00,WUHU216HW,2013-01-02 13:20:00,
2013-01-02 08:21:00,38.2,34.9,30.03,NNW,338,2.6,6.3,88,0.00,,,0.00,WUHU216HW,2013-01-02 13:21:00,
2013-01-02 08:23:00,38.2,34.9,30.02,NNE,31,3.9,5.8,88,0.00,,,0.00,WUHU216HW,2013-01-02 13:23:00,
2013-01-02 08:26:00,38.2,34.9,30.01,NNE,23,4.5,5.8,88,0.00,,,0.00,WUHU216HW,2013-01-02 13:26:00,
2013-01-02 08:29:00,38.2,34.9,30.02,North,10,6.9,7.6,88,0.00,,,0.00,WUHU216HW,2013-01-02 13:29:00,
2013-01-02 08:31:00,38.2,34.9,30.02,NNE,23,3.1,7.6,88,0.00,,,0.00,WUHU216HW,2013-01-02 13:31:00,
2013-01-02 08:34:00,38.2,34.9,30.03,North,5,2.3,7.6,88,0.00,,,0.00,WUHU216HW,2013-01-02 13:34:00,
2013-01-02 08:35:00,38.2,34.9,30.04,North,0,1.8,7.6,88,0.00,,,0.00,WUHU216HW,2013-01-02 13:35:00,
2013-01-02 08:36:00,38.2,34.9,30.04,NW,324,1.5,7.6,88,0.00,,,0.00,WUHU216HW,2013-01-02 13:36:00,
2013-01-02 08:38:00,38.3,35.1,30.05,NNW,338,2.5,3.1,88,0.00,,,0.00,WUHU216HW,2013-01-02 13:38:00,
2013-01-02 08:40:00,38.2,34.9,30.04,NNW,347,2.3,3.1,88,0.00,,,0.00,WUHU216HW,2013-01-02 13:40:00,
2013-01-02 08:41:00,38.2,34.9,30.03,North,0,5.4,5.4,88,0.00,,,0.00,WUHU216HW,2013-01-02 13:41:00,
2013-01-02 08:42:00,38.2,34.9,30.03,North,0,2.8,5.4,88,0.00,,,0.00,WUHU216HW,2013-01-02 13:42:00,
2013-01-02 08:44:00,38.2,34.9,30.04,NNW,340,1.0,5.4,88,0.00,,,0.00,WUHU216HW,2013-01-02 13:44:00,
2013-01-02 08:45:00,38.2,34.9,30.04,North,0,1.8,5.4,88,0.00,,,0.00,WUHU216HW,2013-01-02 13:45:00,
2013-01-02 08:46:00,38.2,34.9,30.03,NNW,343,1.5,5.4,88,0.00,,,0.00,WUHU216HW,2013-01-02 13:46:00,
2013-01-02 08:48:00,38.2,34.9,30.03,North,0,3.4,5.4,88,0.00,,,0.00,WUHU216HW,2013-01-02 13:48:00,
2013-01-02 08:49:00,38.2,34.9,30.03,NNW,341,3.0,5.4,88,0.00,,,0.00,WUHU216HW,2013-01-02 13:49:00,
2013-01-02 08:51:00,38.2,34.9,30.04,WNW,293,2.7,3.4,88,0.00,,,0.00,WUHU216HW,2013-01-02 13:51:00,
2013-01-02 08:52:00,38.2,34.9,30.04,NW,315,2.7,3.4,88,0.00,,,0.00,WUHU216HW,2013-01-02 13:52:00,
2013-01-02 08:53:00,38.2,34.9,30.05,NNW,338,4.0,4.0,88,0.00,,,0.00,WUHU216HW,2013-01-02 13:53:00,
2013-01-02 08:54:00,38.2,34.6,30.05,North,0,4.3,4.3,87,0.00,,,0.00,WUHU216HW,2013-01-02 13:54:00,
2013-01-02 08:56:00,38.2,34.6,30.05,North,0,3.4,4.3,87,0.00,,,0.00,WUHU216HW,2013-01-02 13:56:00,
2013-01-02 08:57:00,38.2,34.6,30.05,NNE,23,2.5,4.3,87,0.00,,,0.00,WUHU216HW,2013-01-02 13:57:00,
2013-01-02 09:00:00,38.2,34.6,30.05,NNW,338,1.5,4.3,87,0.00,,,0.00,WUHU216HW,2013-01-02 14:00:00,
2013-01-02 09:01:00,38.2,34.6,30.04,North,357,1.6,4.3,87,0.00,,,0.00,WUHU216HW,2013-01-02 14:01:00,
2013-01-02 09:02:00,38.2,34.6,30.04,NNW,338,0.9,4.3,87,0.00,,,0.00,WUHU216HW,2013-01-02 14:02:00,
2013-01-02 09:05:00,38.2,34.6,30.03,NNW,336,1.3,2.9,87,0.00,,,0.00,WUHU216HW,2013-01-02 14:05:00,
2013-01-02 09:07:00,38.3,34.7,30.02,ENE,58,1.9,2.9,87,0.00,,,0.00,WUHU216HW,2013-01-02 14:07:00,
2013-01-02 09:09:00,38.3,34.7,30.02,North,0,2.2,3.4,87,0.00,,,0.00,WUHU216HW,2013-01-02 14:09:00,
2013-01-02 09:10:00,38.3,34.7,30.02,WNW,293,2.5,3.4,87,0.00,,,0.00,WUHU216HW,2013-01-02 14:10:00,
2013-01-02 09:12:00,38.3,34.7,30.02,WNW,301,2.0,3.4,87,0.00,,,0.00,WUHU216HW,2013-01-02 14:12:00,
2013-01-02 09:15:00,38.3,34.7,30.02,NNE,12,2.6,3.4,87,0.00,,,0.00,WUHU216HW,2013-01-02 14:15:00,
2013-01-02 09:17:00,38.5,34.9,30.02,North,0,2.3,3.4,87,0.00,,,0.00,WUHU216HW,2013-01-02 14:17:00,
2013-01-02 09:19:00,38.5,34.7,30.02,NNW,338,2.7,2.7,86,0.00,,,0.00,WUHU216HW,2013-01-02 14:19:00,
2013-01-02 09:21:00,38.5,34.7,30.04,NW,315,2.5,2.7,86,0.00,,,0.00,WUHU216HW,2013-01-02 14:21:00,
2013-01-02 09:22:00,38.5,34.9,30.04,NW,318,1.5,2.7,87,0.00,,,0.00,WUHU216HW,2013-01-02 14:22:00,
2013-01-02 09:23:00,38.5,34.9,30.04,NW,318,1.5,2.7,87,0.00,,,0.00,WUHU216HW,2013-01-02 14:23:00,
2013-01-02 09:24:00,38.5,34.9,30.05,North,0,1.6,2.7,87,0.00,,,0.00,WUHU216HW,2013-01-02 14:24:00,
2013-01-02 09:27:00,38.5,34.9,30.05,NNW,338,1.3,2.7,87,0.00,,,0.00,WUHU216HW,2013-01-02 14:27:00,
2013-01-02 09:28:00,38.5,34.9,30.05,NNW,338,1.9,2.5,87,0.00,,,0.00,WUHU216HW,2013-01-02 14:28:00,
2013-01-02 09:29:00,38.5,34.9,30.05,NNW,338,1.9,2.5,87,0.00,,,0.00,WUHU216HW,2013-01-02 14:29:00,
2013-01-02 09:32:00,38.7,34.8,30.05,NNW,330,2.6,3.4,86,0.00,,,0.00,WUHU216HW,2013-01-02 14:32:00,
2013-01-02 09:34:00,38.7,34.8,30.05,NW,315,2.2,3.4,86,0.00,,,0.00,WUHU216HW,2013-01-02 14:34:00,
2013-01-02 09:35:00,38.9,35.0,30.04,NNW,338,6.0,6.0,86,0.00,,,0.00,WUHU216HW,2013-01-02 14:35:00,
2013-01-02 09:37:00,38.9,35.0,30.04,North,355,2.7,6.0,86,0.00,,,0.00,WUHU216HW,2013-01-02 14:37:00,
2013-01-02 09:39:00,38.7,34.8,30.04,North,0,0.9,6.0,86,0.00,,,0.00,WUHU216HW,2013-01-02 14:39:00,
2013-01-02 09:40:00,38.9,35.0,30.05,North,0,1.6,6.0,86,0.00,,,0.00,WUHU216HW,2013-01-02 14:40:00,
2013-01-02 09:43:00,38.9,35.0,30.05,North,0,2.9,6.0,86,0.00,,,0.00,WUHU216HW,2013-01-02 14:43:00,
2013-01-02 09:44:00,38.7,34.8,30.05,North,0,3.4,4.3,86,0.00,,,0.00,WUHU216HW,2013-01-02 14:44:00,
2013-01-02 09:46:00,38.9,35.0,30.05,North,0,2.3,4.3,86,0.00,,,0.00,WUHU216HW,2013-01-02 14:46:00,
2013-01-02 09:47:00,38.7,34.8,30.05,North,0,3.1,3.4,86,0.00,,,0.00,WUHU216HW,2013-01-02 14:47:00,
2013-01-02 09:48:00,38.7,34.8,30.04,North,0,0.9,3.4,86,0.00,,,0.00,WUHU216HW,2013-01-02 14:48:00,
2013-01-02 09:49:00,38.7,34.8,30.04,North,0,1.1,3.4,86,0.00,,,0.00,WUHU216HW,2013-01-02 14:49:00,
2013-01-02 09:51:00,38.7,34.8,30.04,ENE,68,5.1,5.1,86,0.00,,,0.00,WUHU216HW,2013-01-02 14:51:00,
2013-01-02 09:53:00,38.7,34.8,30.05,North,11,1.9,5.1,86,0.00,,,0.00,WUHU216HW,2013-01-02 14:53:00,
2013-01-02 09:54:00,38.9,35.0,30.05,NNW,338,1.7,5.1,86,0.00,,,0.00,WUHU216HW,2013-01-02 14:54:00,
2013-01-02 09:56:00,38.9,35.0,30.05,NNE,23,1.1,5.1,86,0.00,,,0.00,WUHU216HW,2013-01-02 14:56:00,
2013-01-02 09:59:00,38.9,35.0,30.05,NNW,338,2.9,5.1,86,0.00,,,0.00,WUHU216HW,2013-01-02 14:59:00,
2013-01-02 10:00:00,38.9,35.0,30.05,NNW,347,2.6,5.1,86,0.00,,,0.00,WUHU216HW,2013-01-02 15:00:00,
2013-01-02 10:01:00,38.7,34.8,30.05,NNW,333,1.7,2.9,86,0.00,,,0.00,WUHU216HW,2013-01-02 15:01:00,
2013-01-02 10:04:00,38.9,35.0,30.05,NNW,338,1.8,2.9,86,0.00,,,0.00,WUHU216HW,2013-01-02 15:04:00,
2013-01-02 10:06:00,38.7,34.8,30.05,NNW,338,3.8,3.8,86,0.00,,,0.00,WUHU216HW,2013-01-02 15:06:00,
2013-01-02 10:10:00,38.7,34.8,30.05,NNE,33,4.3,4.9,86,0.00,,,0.00,WUHU216HW,2013-01-02 15:10:00,
2013-01-02 10:12:00,38.5,34.7,30.04,NNE,23,2.5,4.9,86,0.00,,,0.00,WUHU216HW,2013-01-02 15:12:00,
2013-01-02 10:13:00,38.5,34.7,30.04,NNE,27,1.6,4.9,86,0.00,,,0.00,WUHU216HW,2013-01-02 15:13:00,
2013-01-02 10:16:00,38.7,34.8,30.05,NNE,23,5.6,5.6,86,0.00,,,0.00,WUHU216HW,2013-01-02 15:16:00,
2013-01-02 10:17:00,38.7,34.8,30.05,NNE,23,3.7,5.6,86,0.00,,,0.00,WUHU216HW,2013-01-02 15:17:00,
2013-01-02 10:18:00,38.5,34.7,30.05,NNE,12,1.7,5.6,86,0.00,,,0.00,WUHU216HW,2013-01-02 15:18:00,
2013-01-02 10:19:00,38.5,34.7,30.05,North,351,1.4,5.6,86,0.00,,,0.00,WUHU216HW,2013-01-02 15:19:00,
2013-01-02 10:21:00,38.7,34.8,30.05,North,352,3.4,5.6,86,0.00,,,0.00,WUHU216HW,2013-01-02 15:21:00,
2013-01-02 10:22:00,38.7,34.8,30.05,NNW,347,3.0,5.6,86,0.00,,,0.00,WUHU216HW,2013-01-02 15:22:00,
2013-01-02 10:23:00,38.7,34.8,30.05,North,0,3.1,5.6,86,0.00,,,0.00,WUHU216HW,2013-01-02 15:23:00,
2013-01-02 10:24:00,38.9,35.0,30.05,NNW,340,2.8,5.6,86,0.00,,,0.00,WUHU216HW,2013-01-02 15:24:00,
2013-01-02 10:26:00,38.9,34.7,30.06,NNW,347,2.2,4.0,85,0.00,,,0.00,WUHU216HW,2013-01-02 15:26:00,
2013-01-02 10:27:00,38.9,34.7,30.06,NNW,347,2.2,4.0,85,0.00,,,0.00,WUHU216HW,2013-01-02 15:27:00,
2013-01-02 10:28:00,38.9,34.7,30.06,NNE,12,2.0,4.0,85,0.00,,,0.00,WUHU216HW,2013-01-02 15:28:00,
2013-01-02 10:30:00,38.9,34.7,30.07,North,0,2.7,3.6,85,0.00,,,0.00,WUHU216HW,2013-01-02 15:30:00,
2013-01-02 10:31:00,38.9,34.7,30.06,North,0,2.9,3.1,85,0.00,,,0.00,WUHU216HW,2013-01-02 15:31:00,
2013-01-02 10:32:00,38.9,34.7,30.07,North,350,2.6,2.9,85,0.00,,,0.00,WUHU216HW,2013-01-02 15:32:00,
2013-01-02 10:34:00,39.1,34.9,30.07,North,0,4.7,4.7,85,0.00,,,0.00,WUHU216HW,2013-01-02 15:34:00,
2013-01-02 10:35:00,39.1,34.9,30.07,North,0,4.1,4.7,85,0.00,,,0.00,WUHU216HW,2013-01-02 15:35:00,
2013-01-02 10:37:00,39.1,34.9,30.06,NNW,338,2.5,4.7,85,0.00,,,0.00,WUHU216HW,2013-01-02 15:37:00,
2013-01-02 10:38:00,39.1,34.9,30.06,ENE,68,2.7,4.7,85,0.00,,,0.00,WUHU216HW,2013-01-02 15:38:00,
2013-01-02 10:39:00,39.1,34.9,30.06,ENE,68,2.7,4.7,85,0.00,,,0.00,WUHU216HW,2013-01-02 15:39:00,
2013-01-02 10:40:00,39.1,34.9,30.06,East,82,1.9,4.7,85,0.00,,,0.00,WUHU216HW,2013-01-02 15:40:00,
2013-01-02 10:43:00,39.1,34.9,30.07,NNW,336,1.2,3.4,85,0.00,,,0.00,WUHU216HW,2013-01-02 15:43:00,
2013-01-02 10:44:00,39.1,34.9,30.07,NNW,336,1.2,3.4,85,0.00,,,0.00,WUHU216HW,2013-01-02 15:44:00,
2013-01-02 10:45:00,39.1,34.9,30.07,North,0,2.5,2.7,85,0.00,,,0.00,WUHU216HW,2013-01-02 15:45:00,
2013-01-02 10:49:00,39.2,34.8,30.08,NW,315,2.5,5.6,84,0.00,,,0.00,WUHU216HW,2013-01-02 15:49:00,
2013-01-02 10:50:00,39.2,34.8,30.08,NW,326,2.3,5.6,84,0.00,,,0.00,WUHU216HW,2013-01-02 15:50:00,
2013-01-02 10:51:00,39.1,34.7,30.08,NNW,338,3.6,5.6,84,0.00,,,0.00,WUHU216HW,2013-01-02 15:51:00,
2013-01-02 10:54:00,39.1,34.7,30.08,NNW,336,2.7,5.6,84,0.00,,,0.00,WUHU216HW,2013-01-02 15:54:00,
2013-01-02 10:56:00,39.2,34.8,30.09,North,0,1.8,5.6,84,0.00,,,0.00,WUHU216HW,2013-01-02 15:56:00,
2013-01-02 10:57:00,39.2,34.8,30.09,NNW,338,2.5,3.6,84,0.00,,,0.00,WUHU216HW,2013-01-02 15:57:00,
2013-01-02 11:00:00,39.2,34.8,30.08,NNW,338,2.2,3.6,84,0.00,,,0.00,WUHU216HW,2013-01-02 16:00:00,
2013-01-02 11:01:00,39.2,34.8,30.08,NNE,12,2.8,3.1,84,0.00,,,0.00,WUHU216HW,2013-01-02 16:01:00,
2013-01-02 11:02:00,39.2,34.8,30.08,NNE,12,2.8,3.1,84,0.00,,,0.00,WUHU216HW,2013-01-02 16:02:00,
2013-01-02 11:03:00,39.2,34.8,30.08,NNW,340,1.6,3.1,84,0.00,,,0.00,WUHU216HW,2013-01-02 16:03:00,
2013-01-02 11:05:00,39.2,34.8,30.08,NW,315,2.5,3.1,84,0.00,,,0.00,WUHU216HW,2013-01-02 16:05:00,
2013-01-02 11:07:00,39.2,34.8,30.08,NNW,338,2.2,3.1,84,0.00,,,0.00,WUHU216HW,2013-01-02 16:07:00,
2013-01-02 11:09:00,39.2,35.1,30.08,NNE,23,4.0,4.0,85,0.00,,,0.00,WUHU216HW,2013-01-02 16:09:00,
2013-01-02 11:10:00,39.2,34.8,30.08,NNE,23,3.9,4.0,84,0.00,,,0.00,WUHU216HW,2013-01-02 16:10:00,
2013-01-02 11:13:00,39.2,34.8,30.07,NNE,23,1.1,4.0,84,0.00,,,0.00,WUHU216HW,2013-01-02 16:13:00,
2013-01-02 11:14:00,39.2,34.8,30.07,North,0,1.4,4.0,84,0.00,,,0.00,WUHU216HW,2013-01-02 16:14:00,
2013-01-02 11:16:00,39.2,34.8,30.07,NNW,338,1.1,4.0,84,0.00,,,0.00,WUHU216HW,2013-01-02 16:16:00,
2013-01-02 11:18:00,39.2,34.8,30.08,NNE,23,5.9,9.2,84,0.00,,,0.00,WUHU216HW,2013-01-02 16:18:00,
2013-01-02 11:21:00,39.2,34.8,30.08,North,0,4.7,9.2,84,0.00,,,0.00,WUHU216HW,2013-01-02 16:21:00,
2013-01-02 11:22:00,39.2,34.8,30.08,NNE,23,6.5,9.2,84,0.00,,,0.00,WUHU216HW,2013-01-02 16:22:00,
2013-01-02 11:23:00,39.2,34.8,30.08,NNE,16,4.5,9.2,84,0.00,,,0.00,WUHU216HW,2013-01-02 16:23:00,
2013-01-02 11:24:00,39.2,34.8,30.08,NNE,16,4.5,9.2,84,0.00,,,0.00,WUHU216HW,2013-01-02 16:24:00,
2013-01-02 11:26:00,39.2,34.8,30.07,North,0,2.6,9.2,84,0.00,,,0.00,WUHU216HW,2013-01-02 16:26:00,
2013-01-02 11:27:00,39.2,34.8,30.07,NNW,341,2.2,6.5,84,0.00,,,0.00,WUHU216HW,2013-01-02 16:27:00,
2013-01-02 11:29:00,39.2,34.8,30.07,NNW,329,1.5,6.5,84,0.00,,,0.00,WUHU216HW,2013-01-02 16:29:00,
2013-01-02 11:30:00,39.4,35.0,30.07,NNW,336,1.8,6.5,84,0.00,,,0.00,WUHU216HW,2013-01-02 16:30:00,
2013-01-02 11:32:00,39.4,35.0,30.07,NW,323,1.2,6.5,84,0.00,,,0.00,WUHU216HW,2013-01-02 16:32:00,
2013-01-02 11:35:00,39.4,35.0,30.07,NNE,23,1.1,2.5,84,0.00,,,0.00,WUHU216HW,2013-01-02 16:35:00,
2013-01-02 11:37:00,39.6,35.2,30.07,NNE,23,2.2,2.7,84,0.00,,,0.00,WUHU216HW,2013-01-02 16:37:00,
2013-01-02 11:38:00,39.6,35.2,30.07,NNE,14,1.8,2.7,84,0.00,,,0.00,WUHU216HW,2013-01-02 16:38:00,
2013-01-02 11:40:00,39.8,35.3,30.06,NNW,348,1.2,2.7,84,0.00,,,0.00,WUHU216HW,2013-01-02 16:40:00,
2013-01-02 11:41:00,39.8,35.3,30.06,North,0,1.6,2.7,84,0.00,,,0.00,WUHU216HW,2013-01-02 16:41:00,
2013-01-02 11:43:00,39.8,35.3,30.06,North,0,1.6,2.7,84,0.00,,,0.00,WUHU216HW,2013-01-02 16:43:00,
2013-01-02 11:44:00,39.6,35.2,30.07,North,0,3.4,3.4,84,0.00,,,0.00,WUHU216HW,2013-01-02 16:44:00,
2013-01-02 11:47:00,39.8,35.0,30.07,NW,315,2.7,3.4,83,0.00,,,0.00,WUHU216HW,2013-01-02 16:47:00,
2013-01-02 11:48:00,39.6,34.6,30.06,North,0,2.7,3.4,82,0.00,,,0.00,WUHU216HW,2013-01-02 16:48:00,
2013-01-02 11:50:00,39.6,34.8,30.06,NNW,338,3.1,3.4,83,0.00,,,0.00,WUHU216HW,2013-01-02 16:50:00,
2013-01-02 11:52:00,39.4,34.7,30.06,North,0,3.1,3.4,83,0.00,,,0.00,WUHU216HW,2013-01-02 16:52:00,
2013-01-02 11:53:00,39.4,34.7,30.06,North,0,3.1,3.4,83,0.00,,,0.00,WUHU216HW,2013-01-02 16:53:00,
2013-01-02 11:54:00,39.6,35.2,30.06,NNW,345,2.3,3.4,84,0.00,,,0.00,WUHU216HW,2013-01-02 16:54:00,
2013-01-02 11:55:00,39.4,34.7,30.06,North,0,5.4,5.4,83,0.00,,,0.00,WUHU216HW,2013-01-02 16:55:00,
2013-01-02 11:57:00,39.4,35.0,30.06,NE,45,2.7,5.4,84,0.00,,,0.00,WUHU216HW,2013-01-02 16:57:00,
2013-01-02 11:58:00,39.4,35.0,30.06,NNE,27,2.3,5.4,84,0.00,,,0.00,WUHU216HW,2013-01-02 16:58:00,
2013-01-02 12:00:00,39.4,35.0,30.06,NNE,17,1.5,5.4,84,0.00,,,0.00,WUHU216HW,2013-01-02 17:00:00,
2013-01-02 12:01:00,39.4,35.0,30.05,NNW,338,2.2,5.4,84,0.00,,,0.00,WUHU216HW,2013-01-02 17:01:00,
2013-01-02 12:04:00,39.4,35.0,30.05,North,0,1.6,5.4,84,0.00,,,0.00,WUHU216HW,2013-01-02 17:04:00,
2013-01-02 12:06:00,39.4,35.0,30.05,NE,45,4.0,4.0,84,0.00,,,0.00,WUHU216HW,2013-01-02 17:06:00,
2013-01-02 12:09:00,39.4,34.7,30.06,NNW,338,4.7,4.7,83,0.00,,,0.00,WUHU216HW,2013-01-02 17:09:00,
2013-01-02 12:11:00,39.2,34.6,30.06,North,0,3.1,4.7,83,0.00,,,0.00,WUHU216HW,2013-01-02 17:11:00,
2013-01-02 12:12:00,39.2,34.6,30.06,North,0,3.1,4.7,83,0.00,,,0.00,WUHU216HW,2013-01-02 17:12:00,
2013-01-02 12:14:00,39.2,34.8,30.06,North,0,1.8,4.7,84,0.00,,,0.00,WUHU216HW,2013-01-02 17:14:00,
2013-01-02 12:16:00,39.4,35.0,30.06,North,0,1.6,4.7,84,0.00,,,0.00,WUHU216HW,2013-01-02 17:16:00,
2013-01-02 12:17:00,39.4,35.0,30.06,North,0,1.6,4.7,84,0.00,,,0.00,WUHU216HW,2013-01-02 17:17:00,
2013-01-02 12:20:00,39.4,35.0,30.06,East,90,4.3,4.3,84,0.00,,,0.00,WUHU216HW,2013-01-02 17:20:00,
2013-01-02 12:21:00,39.6,35.2,30.05,ENE,67,3.1,4.3,84,0.00,,,0.00,WUHU216HW,2013-01-02 17:21:00,
2013-01-02 12:22:00,39.6,35.2,30.05,ENE,67,3.1,4.3,84,0.00,,,0.00,WUHU216HW,2013-01-02 17:22:00,
2013-01-02 12:23:00,39.6,35.2,30.05,NW,315,2.7,4.3,84,0.00,,,0.00,WUHU216HW,2013-01-02 17:23:00,
2013-01-02 12:26:00,39.4,34.7,30.05,NNE,23,5.8,5.8,83,0.00,,,0.00,WUHU216HW,2013-01-02 17:26:00,
2013-01-02 12:27:00,39.6,34.8,30.05,NNE,19,3.5,5.8,83,0.00,,,0.00,WUHU216HW,2013-01-02 17:27:00,
2013-01-02 12:28:00,39.6,35.2,30.05,North,0,0.7,5.8,84,0.00,,,0.00,WUHU216HW,2013-01-02 17:28:00,
2013-01-02 12:31:00,39.6,34.8,30.05,NNW,338,1.8,5.8,83,0.00,,,0.00,WUHU216HW,2013-01-02 17:31:00,
2013-01-02 12:32:00,39.6,34.8,30.05,NNW,338,1.8,5.8,83,0.00,,,0.00,WUHU216HW,2013-01-02 17:32:00,
2013-01-02 12:33:00,39.6,34.8,30.05,NNE,23,3.1,5.8,83,0.00,,,0.00,WUHU216HW,2013-01-02 17:33:00,
2013-01-02 12:37:00,39.4,34.7,30.05,North,350,2.0,3.4,83,0.00,,,0.00,WUHU216HW,2013-01-02 17:37:00,
2013-01-02 12:38:00,39.6,35.2,30.05,NNW,338,1.8,3.1,84,0.00,,,0.00,WUHU216HW,2013-01-02 17:38:00,
2013-01-02 12:40:00,39.6,35.2,30.05,NNW,338,3.1,3.1,84,0.00,,,0.00,WUHU216HW,2013-01-02 17:40:00,
2013-01-02 12:42:00,39.6,34.8,30.03,NNE,14,3.4,4.3,83,0.00,,,0.00,WUHU216HW,2013-01-02 17:42:00,
2013-01-02 12:43:00,39.6,34.8,30.03,NNE,14,3.4,4.3,83,0.00,,,0.00,WUHU216HW,2013-01-02 17:43:00,
2013-01-02 12:45:00,39.6,35.2,30.04,NNW,333,1.1,4.3,84,0.00,,,0.00,WUHU216HW,2013-01-02 17:45:00,
2013-01-02 12:47:00,39.6,35.2,30.04,NNE,23,1.8,4.3,84,0.00,,,0.00,WUHU216HW,2013-01-02 17:47:00,
2013-01-02 12:48:00,39.6,35.2,30.04,North,0,2.9,4.3,84,0.00,,,0.00,WUHU216HW,2013-01-02 17:48:00,
2013-01-02 12:49:00,39.6,35.2,30.04,North,0,2.9,4.3,84,0.00,,,0.00,WUHU216HW,2013-01-02 17:49:00,
2013-01-02 12:50:00,39.6,35.2,30.04,North,0,2.0,4.3,84,0.00,,,0.00,WUHU216HW,2013-01-02 17:50:00,
2013-01-02 12:53:00,39.4,35.0,30.04,NW,315,2.0,2.9,84,0.00,,,0.00,WUHU216HW,2013-01-02 17:53:00,
2013-01-02 12:54:00,39.6,35.2,30.04,NNE,23,2.5,2.9,84,0.00,,,0.00,WUHU216HW,2013-01-02 17:54:00,
2013-01-02 12:55:00,39.6,35.2,30.04,NNE,23,2.5,2.9,84,0.00,,,0.00,WUHU216HW,2013-01-02 17:55:00,
2013-01-02 12:56:00,39.4,35.0,30.04,NNE,23,5.4,5.4,84,0.00,,,0.00,WUHU216HW,2013-01-02 17:56:00,
2013-01-02 12:59:00,39.4,34.7,30.04,NNE,23,2.5,5.4,83,0.00,,,0.00,WUHU216HW,2013-01-02 17:59:00,
2013-01-02 13:00:00,39.2,34.6,30.03,NNE,23,2.5,5.4,83,0.00,,,0.00,WUHU216HW,2013-01-02 18:00:00,
2013-01-02 13:01:00,39.2,34.6,30.03,NNE,23,2.5,5.4,83,0.00,,,0.00,WUHU216HW,2013-01-02 18:01:00,
2013-01-02 13:05:00,39.2,34.6,30.03,North,0,1.6,5.4,83,0.00,,,0.00,WUHU216HW,2013-01-02 18:05:00,
2013-01-02 13:06:00,39.2,34.6,30.03,North,0,2.2,3.8,83,0.00,,,0.00,WUHU216HW,2013-01-02 18:06:00,
2013-01-02 13:07:00,39.4,35.0,30.03,NNW,338,1.6,3.8,84,0.00,,,0.00,WUHU216HW,2013-01-02 18:07:00,
2013-01-02 13:10:00,39.4,35.0,30.03,North,10,3.2,4.5,84,0.00,,,0.00,WUHU216HW,2013-01-02 18:10:00,
2013-01-02 13:11:00,39.4,34.7,30.03,NNW,336,1.9,4.5,83,0.00,,,0.00,WUHU216HW,2013-01-02 18:11:00,
2013-01-02 13:13:00,39.6,35.2,30.02,NNE,23,3.6,4.5,84,0.00,,,0.00,WUHU216HW,2013-01-02 18:13:00,
2013-01-02 13:15:00,39.6,35.2,30.02,NNW,344,1.1,4.5,84,0.00,,,0.00,WUHU216HW,2013-01-02 18:15:00,
2013-01-02 13:18:00,39.6,34.8,30.02,North,0,3.8,3.8,83,0.00,,,0.00,WUHU216HW,2013-01-02 18:18:00,
2013-01-02 13:20:00,39.6,34.8,30.02,North,0,2.0,3.8,83,0.00,,,0.00,WUHU216HW,2013-01-02 18:20:00,
2013-01-02 13:23:00,39.6,34.8,30.02,NW,315,4.0,4.0,83,0.00,,,0.00,WUHU216HW,2013-01-02 18:23:00,
2013-01-02 13:24:00,39.6,34.8,30.02,NW,321,2.2,4.0,83,0.00,,,0.00,WUHU216HW,2013-01-02 18:24:00,
2013-01-02 13:25:00,39.6,35.2,30.02,NW,315,2.2,4.0,84,0.00,,,0.00,WUHU216HW,2013-01-02 18:25:00,
2013-01-02 13:28:00,39.6,34.8,30.03,North,0,0.9,4.0,83,0.00,,,0.00,WUHU216HW,2013-01-02 18:28:00,
2013-01-02 13:29:00,39.6,34.8,30.03,North,0,0.9,4.0,83,0.00,,,0.00,WUHU216HW,2013-01-02 18:29:00,
2013-01-02 13:30:00,39.6,34.8,30.03,NNW,338,1.8,4.0,83,0.00,,,0.00,WUHU216HW,2013-01-02 18:30:00,
2013-01-02 13:31:00,39.6,34.8,30.03,NNW,338,1.1,4.0,83,0.00,,,0.00,WUHU216HW,2013-01-02 18:31:00,
2013-01-02 13:34:00,39.6,34.8,30.03,NW,315,3.1,3.1,83,0.00,,,0.00,WUHU216HW,2013-01-02 18:34:00,
2013-01-02 13:35:00,39.6,34.8,30.03,NW,326,2.1,3.1,83,0.00,,,0.00,WUHU216HW,2013-01-02 18:35:00,
2013-01-02 13:36:00,39.6,34.8,30.03,North,0,3.0,3.4,83,0.00,,,0.00,WUHU216HW,2013-01-02 18:36:00,
2013-01-02 13:39:00,39.6,34.8,30.02,NNE,23,2.2,3.4,83,0.00,,,0.00,WUHU216HW,2013-01-02 18:39:00,
2013-01-02 13:41:00,39.6,34.8,30.02,NNE,15,1.9,3.4,83,0.00,,,0.00,WUHU216HW,2013-01-02 18:41:00,
2013-01-02 13:42:00,39.6,34.8,30.02,NNE,15,1.9,3.4,83,0.00,,,0.00,WUHU216HW,2013-01-02 18:42:00,
2013-01-02 13:45:00,39.6,34.8,30.02,NNE,29,1.8,3.4,83,0.00,,,0.00,WUHU216HW,2013-01-02 18:45:00,
2013-01-02 13:47:00,39.6,34.8,30.02,North,0,1.6,3.1,83,0.00,,,0.00,WUHU216HW,2013-01-02 18:47:00,
2013-01-02 13:50:00,39.6,34.8,30.02,NW,315,2.2,3.1,83,0.00,,,0.00,WUHU216HW,2013-01-02 18:50:00,
2013-01-02 13:52:00,39.6,34.8,30.02,NNW,335,2.0,3.1,83,0.00,,,0.00,WUHU216HW,2013-01-02 18:52:00,
2013-01-02 13:55:00,39.6,34.8,30.02,North,0,1.6,3.4,83,0.00,,,0.00,WUHU216HW,2013-01-02 18:55:00,
2013-01-02 13:56:00,39.6,34.8,30.02,North,0,1.6,3.4,83,0.00,,,0.00,WUHU216HW,2013-01-02 18:56:00,
2013-01-02 13:58:00,39.6,34.8,30.02,NNE,23,1.6,3.4,83,0.00,,,0.00,WUHU216HW,2013-01-02 18:58:00,
2013-01-02 14:01:00,39.6,34.8,30.02,NNW,338,1.3,3.4,83,0.00,,,0.00,WUHU216HW,2013-01-02 19:01:00,
2013-01-02 14:02:00,39.6,34.8,30.02,North,0,2.0,3.4,83,0.00,,,0.00,WUHU216HW,2013-01-02 19:02:00,
2013-01-02 14:03:00,39.8,35.0,30.02,North,0,1.2,2.0,83,0.00,,,0.00,WUHU216HW,2013-01-02 19:03:00,
2013-01-02 14:06:00,39.8,35.0,30.02,NNW,329,2.2,2.7,83,0.00,,,0.00,WUHU216HW,2013-01-02 19:06:00,
2013-01-02 14:08:00,39.8,35.0,30.02,NNE,23,2.9,2.9,83,0.00,,,0.00,WUHU216HW,2013-01-02 19:08:00,
2013-01-02 14:09:00,40.0,34.9,30.02,North,11,2.0,2.9,82,0.00,,,0.00,WUHU216HW,2013-01-02 19:09:00,
2013-01-02 14:11:00,40.0,35.2,30.02,North,0,2.2,2.9,83,0.00,,,0.00,WUHU216HW,2013-01-02 19:11:00,
2013-01-02 14:13:00,39.8,34.8,30.03,NNW,338,1.6,2.9,82,0.00,,,0.00,WUHU216HW,2013-01-02 19:13:00,
2013-01-02 14:14:00,39.8,34.8,30.03,NNW,338,1.8,2.9,82,0.00,,,0.00,WUHU216HW,2013-01-02 19:14:00,
2013-01-02 14:16:00,39.8,34.8,30.03,NNW,344,1.1,2.9,82,0.00,,,0.00,WUHU216HW,2013-01-02 19:16:00,
2013-01-02 14:18:00,39.8,34.8,30.04,NNW,346,1.6,2.2,82,0.00,,,0.00,WUHU216HW,2013-01-02 19:18:00,
2013-01-02 14:19:00,39.8,34.8,30.04,NNW,346,1.6,2.2,82,0.00,,,0.00,WUHU216HW,2013-01-02 19:19:00,
2013-01-02 14:20:00,39.8,34.8,30.03,North,0,1.3,2.2,82,0.00,,,0.00,WUHU216HW,2013-01-02 19:20:00,
2013-01-02 14:22:00,40.0,34.9,30.03,NNW,338,3.8,3.8,82,0.00,,,0.00,WUHU216HW,2013-01-02 19:22:00,
2013-01-02 14:24:00,40.0,34.9,30.02,North,0,1.8,3.8,82,0.00,,,0.00,WUHU216HW,2013-01-02 19:24:00,
2013-01-02 14:25:00,40.0,34.9,30.02,North,0,2.9,3.8,82,0.00,,,0.00,WUHU216HW,2013-01-02 19:25:00,
2013-01-02 14:28:00,40.0,34.9,30.02,North,354,1.3,3.8,82,0.00,,,0.00,WUHU216HW,2013-01-02 19:28:00,
2013-01-02 14:29:00,39.8,34.8,30.02,NW,315,1.3,3.8,82,0.00,,,0.00,WUHU216HW,2013-01-02 19:29:00,
2013-01-02 14:30:00,40.0,34.9,30.02,NW,315,1.2,3.8,82,0.00,,,0.00,WUHU216HW,2013-01-02 19:30:00,
2013-01-02 14:33:00,40.0,34.9,30.02,NW,315,2.0,2.9,82,0.00,,,0.00,WUHU216HW,2013-01-02 19:33:00,
2013-01-02 14:34:00,40.0,34.9,30.02,North,0,1.1,2.0,82,0.00,,,0.00,WUHU216HW,2013-01-02 19:34:00,
2013-01-02 14:36:00,40.0,34.9,30.02,NW,315,2.2,2.2,82,0.00,,,0.00,WUHU216HW,2013-01-02 19:36:00,
2013-01-02 14:38:00,40.0,34.9,30.02,NW,315,1.8,2.2,82,0.00,,,0.00,WUHU216HW,2013-01-02 19:38:00,
2013-01-02 14:39:00,40.0,34.9,30.02,NNE,23,3.1,3.1,82,0.00,,,0.00,WUHU216HW,2013-01-02 19:39:00,
2013-01-02 14:40:00,39.8,34.8,30.02,North,5,2.3,3.4,82,0.00,,,0.00,WUHU216HW,2013-01-02 19:40:00,
2013-01-02 14:41:00,39.8,34.8,30.02,North,5,2.3,3.4,82,0.00,,,0.00,WUHU216HW,2013-01-02 19:41:00,
2013-01-02 14:44:00,39.8,34.8,30.01,NNE,20,1.8,3.4,82,0.00,,,0.00,WUHU216HW,2013-01-02 19:44:00,
2013-01-02 14:46:00,39.8,34.8,30.01,North,0,3.8,3.8,82,0.00,,,0.00,WUHU216HW,2013-01-02 19:46:00,
2013-01-02 14:47:00,39.8,34.8,30.01,NE,45,0.8,3.8,82,0.00,,,0.00,WUHU216HW,2013-01-02 19:47:00,
2013-01-02 14:49:00,39.8,34.8,30.01,North,0,3.4,3.8,82,0.00,,,0.00,WUHU216HW,2013-01-02 19:49:00,
2013-01-02 14:52:00,39.8,34.8,30.01,North,357,1.8,3.8,82,0.00,,,0.00,WUHU216HW,2013-01-02 19:52:00,
2013-01-02 14:53:00,39.8,34.8,30.01,NNE,23,1.1,3.8,82,0.00,,,0.00,WUHU216HW,2013-01-02 19:53:00,
2013-01-02 14:55:00,39.8,34.8,30.02,North,0,1.8,3.8,82,0.00,,,0.00,WUHU216HW,2013-01-02 19:55:00,
2013-01-02 14:57:00,39.8,34.8,30.02,North,0,3.6,3.6,82,0.00,,,0.00,WUHU216HW,2013-01-02 19:57:00,
2013-01-02 14:58:00,39.8,34.8,30.02,North,354,2.4,3.6,82,0.00,,,0.00,WUHU216HW,2013-01-02 19:58:00,
2013-01-02 15:00:00,40.0,34.9,30.02,NW,315,2.5,3.6,82,0.00,,,0.00,WUHU216HW,2013-01-02 20:00:00,
2013-01-02 15:03:00,40.0,34.9,30.02,NW,315,1.8,3.6,82,0.00,,,0.00,WUHU216HW,2013-01-02 20:03:00,
2013-01-02 15:06:00,40.0,34.9,30.02,NNE,16,2.6,3.6,82,0.00,,,0.00,WUHU216HW,2013-01-02 20:06:00,
2013-01-02 15:08:00,40.0,34.9,30.02,NNW,333,1.9,2.9,82,0.00,,,0.00,WUHU216HW,2013-01-02 20:08:00,
2013-01-02 15:09:00,40.0,34.9,30.02,North,0,2.2,2.9,82,0.00,,,0.00,WUHU216HW,2013-01-02 20:09:00,
2013-01-02 15:11:00,39.8,34.8,30.02,North,0,3.4,3.4,82,0.00,,,0.00,WUHU216HW,2013-01-02 20:11:00,
2013-01-02 15:13:00,40.0,34.9,30.02,NNW,338,2.5,3.4,82,0.00,,,0.00,WUHU216HW,2013-01-02 20:13:00,
2013-01-02 15:16:00,40.0,34.6,30.03,NE,45,2.0,3.4,81,0.00,,,0.00,WUHU216HW,2013-01-02 20:16:00,
2013-01-02 15:17:00,40.0,34.9,30.03,NNW,338,3.4,3.4,82,0.00,,,0.00,WUHU216HW,2013-01-02 20:17:00,
2013-01-02 15:19:00,40.0,34.6,30.03,NNW,338,3.4,3.4,81,0.00,,,0.00,WUHU216HW,2013-01-02 20:19:00,
2013-01-02 15:22:00,40.0,34.6,30.03,NNE,23,1.8,3.4,81,0.00,,,0.00,WUHU216HW,2013-01-02 20:22:00,
2013-01-02 15:25:00,40.1,35.4,30.02,NNE,23,1.8,3.4,83,0.00,,,0.00,WUHU216HW,2013-01-02 20:25:00,
2013-01-02 15:27:00,40.3,35.6,30.02,North,0,1.8,3.4,83,0.00,,,0.00,WUHU216HW,2013-01-02 20:27:00,
2013-01-02 15:28:00,40.3,35.6,30.02,NNE,23,2.5,3.4,83,0.00,,,0.00,WUHU216HW,2013-01-02 20:28:00,
2013-01-02 15:32:00,40.3,35.2,30.02,NNE,23,1.1,2.5,82,0.00,,,0.00,WUHU216HW,2013-01-02 20:32:00,
2013-01-02 15:33:00,40.3,35.2,30.02,NNE,23,1.0,2.5,82,0.00,,,0.00,WUHU216HW,2013-01-02 20:33:00,
2013-01-02 15:37:00,40.3,35.2,30.02,NE,45,4.5,4.5,82,0.00,,,0.00,WUHU216HW,2013-01-02 20:37:00,
2013-01-02 15:39:00,40.1,34.5,30.01,ENE,68,6.5,6.5,80,0.00,,,0.00,WUHU216HW,2013-01-02 20:39:00,
2013-01-02 15:43:00,39.8,34.1,30.01,NE,38,1.8,6.5,80,0.00,,,0.00,WUHU216HW,2013-01-02 20:43:00,
2013-01-02 15:44:00,39.8,34.5,30.01,NNE,33,1.0,6.5,81,0.00,,,0.00,WUHU216HW,2013-01-02 20:44:00,
2013-01-02 15:45:00,39.8,34.5,30.02,ESE,113,3.1,6.5,81,0.00,,,0.00,WUHU216HW,2013-01-02 20:45:00,
2013-01-02 15:49:00,39.8,34.5,30.02,East,90,1.1,4.9,81,0.00,,,0.00,WUHU216HW,2013-01-02 20:49:00,
2013-01-02 15:50:00,39.8,34.5,30.02,ENE,68,1.1,4.0,81,0.00,,,0.00,WUHU216HW,2013-01-02 20:50:00,
2013-01-02 15:51:00,39.8,34.5,30.02,North,0,2.9,3.1,81,0.00,,,0.00,WUHU216HW,2013-01-02 20:51:00,
2013-01-02 15:54:00,39.8,34.5,30.03,NNE,23,5.6,5.6,81,0.00,,,0.00,WUHU216HW,2013-01-02 20:54:00,
2013-01-02 15:55:00,39.8,34.5,30.04,NNE,23,3.6,5.6,81,0.00,,,0.00,WUHU216HW,2013-01-02 20:55:00,
2013-01-02 15:56:00,39.6,34.3,30.03,NNE,23,4.3,5.6,81,0.00,,,0.00,WUHU216HW,2013-01-02 20:56:00,
2013-01-02 15:57:00,39.6,34.3,30.04,NNE,14,3.4,5.6,81,0.00,,,0.00,WUHU216HW,2013-01-02 20:57:00,
2013-01-02 15:59:00,39.6,34.3,30.04,NNE,24,2.3,5.6,81,0.00,,,0.00,WUHU216HW,2013-01-02 20:59:00,
2013-01-02 16:02:00,39.6,34.3,30.04,North,0,1.1,5.6,81,0.00,,,0.00,WUHU216HW,2013-01-02 21:02:00,
2013-01-02 16:03:00,39.8,34.5,30.04,North,351,0.9,5.6,81,0.00,,,0.00,WUHU216HW,2013-01-02 21:03:00,
2013-01-02 16:05:00,39.8,34.8,30.05,NW,321,0.8,4.3,82,0.00,,,0.00,WUHU216HW,2013-01-02 21:05:00,
2013-01-02 16:08:00,40.0,34.9,30.05,NW,315,2.5,2.5,82,0.00,,,0.00,WUHU216HW,2013-01-02 21:08:00,
2013-01-02 16:11:00,40.0,34.6,30.05,North,356,1.4,2.5,81,0.00,,,0.00,WUHU216HW,2013-01-02 21:11:00,
2013-01-02 16:13:00,40.0,34.6,30.05,NW,323,1.1,2.5,81,0.00,,,0.00,WUHU216HW,2013-01-02 21:13:00,
2013-01-02 16:14:00,40.0,34.6,30.05,NW,323,1.1,2.5,81,0.00,,,0.00,WUHU216HW,2013-01-02 21:14:00,
2013-01-02 16:16:00,40.0,34.6,30.05,NNE,23,0.7,2.5,81,0.00,,,0.00,WUHU216HW,2013-01-02 21:16:00,
2013-01-02 16:18:00,40.0,34.6,30.04,NNE,14,2.4,3.1,81,0.00,,,0.00,WUHU216HW,2013-01-02 21:18:00,
2013-01-02 16:19:00,40.0,34.6,30.04,NNE,14,2.4,3.1,81,0.00,,,0.00,WUHU216HW,2013-01-02 21:19:00,
2013-01-02 16:21:00,39.8,34.5,30.05,NNE,23,2.3,4.0,81,0.00,,,0.00,WUHU216HW,2013-01-02 21:21:00,
2013-01-02 16:23:00,39.8,34.5,30.05,NNE,20,1.0,4.0,81,0.00,,,0.00,WUHU216HW,2013-01-02 21:23:00,
2013-01-02 16:24:00,39.8,34.5,30.05,NNE,20,1.0,4.0,81,0.00,,,0.00,WUHU216HW,2013-01-02 21:24:00,
2013-01-02 16:25:00,39.6,34.3,30.05,NNE,23,1.6,4.0,81,0.00,,,0.00,WUHU216HW,2013-01-02 21:25:00,
2013-01-02 16:27:00,39.6,34.3,30.05,NW,315,1.1,4.0,81,0.00,,,0.00,WUHU216HW,2013-01-02 21:27:00,
2013-01-02 16:29:00,39.6,34.6,30.05,NW,315,2.2,3.4,82,0.00,,,0.00,WUHU216HW,2013-01-02 21:29:00,
2013-01-02 16:32:00,39.8,34.8,30.05,North,0,1.4,2.2,82,0.00,,,0.00,WUHU216HW,2013-01-02 21:32:00,
2013-01-02 16:33:00,39.6,34.6,30.05,North,0,0.7,2.2,82,0.00,,,0.00,WUHU216HW,2013-01-02 21:33:00,
2013-01-02 16:34:00,39.8,34.8,30.05,NNE,23,1.5,2.2,82,0.00,,,0.00,WUHU216HW,2013-01-02 21:34:00,
2013-01-02 16:37:00,39.6,34.3,30.04,NNE,23,2.7,2.7,81,0.00,,,0.00,WUHU216HW,2013-01-02 21:37:00,
2013-01-02 16:38:00,39.6,34.6,30.04,NNE,31,2.3,2.7,82,0.00,,,0.00,WUHU216HW,2013-01-02 21:38:00,
2013-01-02 16:39:00,39.6,34.6,30.04,NNE,23,2.9,2.9,82,0.00,,,0.00,WUHU216HW,2013-01-02 21:39:00,
2013-01-02 16:40:00,39.6,34.6,30.04,NNE,23,2.9,2.9,82,0.00,,,0.00,WUHU216HW,2013-01-02 21:40:00,
2013-01-02 16:42:00,39.6,34.6,30.04,NNW,338,1.8,2.9,82,0.00,,,0.00,WUHU216HW,2013-01-02 21:42:00,
2013-01-02 16:43:00,39.6,34.6,30.04,NNW,338,1.8,2.9,82,0.00,,,0.00,WUHU216HW,2013-01-02 21:43:00,
2013-01-02 16:44:00,39.6,34.6,30.04,NNE,15,1.7,2.9,82,0.00,,,0.00,WUHU216HW,2013-01-02 21:44:00,
2013-01-02 16:45:00,39.6,34.6,30.04,NNE,23,2.5,2.9,82,0.00,,,0.00,WUHU216HW,2013-01-02 21:45:00,
2013-01-02 16:47:00,39.6,34.6,30.04,North,0,2.2,2.9,82,0.00,,,0.00,WUHU216HW,2013-01-02 21:47:00,
2013-01-02 16:49:00,39.4,34.4,30.04,NNW,345,1.7,2.9,82,0.00,,,0.00,WUHU216HW,2013-01-02 21:49:00,
2013-01-02 16:50:00,39.4,34.4,30.04,North,0,2.0,2.5,82,0.00,,,0.00,WUHU216HW,2013-01-02 21:50:00,
2013-01-02 16:51:00,39.4,34.4,30.04,North,0,2.0,2.5,82,0.00,,,0.00,WUHU216HW,2013-01-02 21:51:00,
2013-01-02 16:53:00,39.4,34.4,30.04,North,0,2.5,2.5,82,0.00,,,0.00,WUHU216HW,2013-01-02 21:53:00,
2013-01-02 16:54:00,39.4,34.4,30.04,NNE,23,5.8,5.8,82,0.00,,,0.00,WUHU216HW,2013-01-02 21:54:00,
2013-01-02 16:56:00,39.4,34.4,30.04,North,0,1.1,5.8,82,0.00,,,0.00,WUHU216HW,2013-01-02 21:56:00,
2013-01-02 16:57:00,39.4,34.4,30.05,NNE,23,2.7,5.8,82,0.00,,,0.00,WUHU216HW,2013-01-02 21:57:00,
2013-01-02 16:58:00,39.2,34.2,30.05,NNE,14,1.7,5.8,82,0.00,,,0.00,WUHU216HW,2013-01-02 21:58:00,
2013-01-02 17:00:00,39.2,34.2,30.05,North,11,1.2,5.8,82,0.00,,,0.00,WUHU216HW,2013-01-02 22:00:00,
2013-01-02 17:01:00,39.2,34.2,30.05,North,0,1.1,5.8,82,0.00,,,0.00,WUHU216HW,2013-01-02 22:01:00,
2013-01-02 17:03:00,39.2,34.2,30.05,NNE,23,1.8,5.8,82,0.00,,,0.00,WUHU216HW,2013-01-02 22:03:00,
2013-01-02 17:06:00,39.2,34.6,30.05,North,0,0.6,1.8,83,0.00,,,0.00,WUHU216HW,2013-01-02 22:06:00,
2013-01-02 17:08:00,39.2,34.6,30.05,North,352,0.3,1.8,83,0.00,,,0.00,WUHU216HW,2013-01-02 22:08:00,
2013-01-02 17:09:00,39.2,34.6,30.05,North,352,0.3,1.8,83,0.00,,,0.00,WUHU216HW,2013-01-02 22:09:00,
2013-01-02 17:12:00,39.2,34.6,30.04,NNE,23,0.4,1.8,83,0.00,,,0.00,WUHU216HW,2013-01-02 22:12:00,
2013-01-02 17:14:00,39.2,34.6,30.03,NE,45,1.8,1.8,83,0.00,,,0.00,WUHU216HW,2013-01-02 22:14:00,
2013-01-02 17:17:00,39.2,34.6,30.04,North,7,2.5,3.4,83,0.00,,,0.00,WUHU216HW,2013-01-02 22:17:00,
2013-01-02 17:19:00,39.2,34.6,30.04,NNE,23,1.8,3.4,83,0.00,,,0.00,WUHU216HW,2013-01-02 22:19:00,
2013-01-02 17:22:00,39.2,34.6,30.03,North,8,0.6,3.4,83,0.00,,,0.00,WUHU216HW,2013-01-02 22:22:00,
2013-01-02 17:24:00,39.2,34.6,30.03,North,0,0.7,3.4,83,0.00,,,0.00,WUHU216HW,2013-01-02 22:24:00,
2013-01-02 17:25:00,39.2,34.6,30.03,North,0,0.7,3.4,83,0.00,,,0.00,WUHU216HW,2013-01-02 22:25:00,
2013-01-02 17:27:00,39.2,34.6,30.03,North,0,2.3,3.4,83,0.00,,,0.00,WUHU216HW,2013-01-02 22:27:00,
2013-01-02 17:30:00,39.2,34.6,30.03,NNE,15,3.0,4.0,83,0.00,,,0.00,WUHU216HW,2013-01-02 22:30:00,
2013-01-02 17:31:00,39.1,34.7,30.03,NNE,13,1.8,4.0,84,0.00,,,0.00,WUHU216HW,2013-01-02 22:31:00,
2013-01-02 17:33:00,39.1,34.7,30.03,NE,45,1.1,4.0,84,0.00,,,0.00,WUHU216HW,2013-01-02 22:33:00,
2013-01-02 17:36:00,39.1,34.7,30.03,North,351,1.7,4.0,84,0.00,,,0.00,WUHU216HW,2013-01-02 22:36:00,
2013-01-02 17:38:00,39.1,34.7,30.03,NE,38,4.2,5.8,84,0.00,,,0.00,WUHU216HW,2013-01-02 22:38:00,
2013-01-02 17:41:00,39.1,34.7,30.04,NNW,338,1.6,5.8,84,0.00,,,0.00,WUHU216HW,2013-01-02 22:41:00,
2013-01-02 17:42:00,39.1,34.7,30.04,NNW,338,1.6,5.8,84,0.00,,,0.00,WUHU216HW,2013-01-02 22:42:00,
2013-01-02 17:43:00,38.9,34.5,30.04,North,0,1.8,5.8,84,0.00,,,0.00,WUHU216HW,2013-01-02 22:43:00,
2013-01-02 17:45:00,39.1,34.7,30.04,NNW,338,2.2,5.8,84,0.00,,,0.00,WUHU216HW,2013-01-02 22:45:00,
2013-01-02 17:46:00,38.9,34.5,30.03,North,7,1.0,2.5,84,0.00,,,0.00,WUHU216HW,2013-01-02 22:46:00,
2013-01-02 17:47:00,39.1,34.7,30.04,NNW,338,0.7,2.2,84,0.00,,,0.00,WUHU216HW,2013-01-02 22:47:00,
2013-01-02 17:49:00,39.1,34.7,30.04,North,6,1.0,2.2,84,0.00,,,0.00,WUHU216HW,2013-01-02 22:49:00,
2013-01-02 17:50:00,39.1,34.7,30.04,North,6,1.0,2.2,84,0.00,,,0.00,WUHU216HW,2013-01-02 22:50:00,
2013-01-02 17:51:00,38.9,34.5,30.03,North,0,2.5,2.5,84,0.00,,,0.00,WUHU216HW,2013-01-02 22:51:00,
2013-01-02 17:52:00,38.9,34.5,30.03,NNE,23,2.5,2.5,84,0.00,,,0.00,WUHU216HW,2013-01-02 22:52:00,
2013-01-02 17:55:00,38.9,34.5,30.02,NE,45,4.5,4.5,84,0.00,,,0.00,WUHU216HW,2013-01-02 22:55:00,
2013-01-02 17:57:00,38.9,34.5,30.02,NE,45,2.7,4.5,84,0.00,,,0.00,WUHU216HW,2013-01-02 22:57:00,
2013-01-02 17:58:00,38.9,34.5,30.01,North,357,1.2,4.5,84,0.00,,,0.00,WUHU216HW,2013-01-02 22:58:00,
2013-01-02 18:01:00,38.9,34.5,30.02,NW,315,0.9,4.5,84,0.00,,,0.00,WUHU216HW,2013-01-02 23:01:00,
2013-01-02 18:02:00,38.9,34.5,30.02,NNW,338,0.9,4.5,84,0.00,,,0.00,WUHU216HW,2013-01-02 23:02:00,
2013-01-02 18:03:00,38.9,34.5,30.03,NNW,344,0.6,4.5,84,0.00,,,0.00,WUHU216HW,2013-01-02 23:03:00,
2013-01-02 18:06:00,38.9,34.5,30.03,NNW,338,0.4,2.2,84,0.00,,,0.00,WUHU216HW,2013-01-02 23:06:00,
2013-01-02 18:07:00,38.9,34.5,30.03,NNW,338,0.4,2.2,84,0.00,,,0.00,WUHU216HW,2013-01-02 23:07:00,
2013-01-02 18:08:00,38.9,34.5,30.03,North,0,1.8,1.8,84,0.00,,,0.00,WUHU216HW,2013-01-02 23:08:00,
2013-01-02 18:09:00,38.9,34.5,30.04,North,0,2.2,2.2,84,0.00,,,0.00,WUHU216HW,2013-01-02 23:09:00,
2013-01-02 18:12:00,38.9,34.5,30.05,NW,315,2.0,2.2,84,0.00,,,0.00,WUHU216HW,2013-01-02 23:12:00,
2013-01-02 18:13:00,38.9,34.5,30.05,NW,315,1.9,2.2,84,0.00,,,0.00,WUHU216HW,2013-01-02 23:13:00,
2013-01-02 18:14:00,38.9,34.5,30.05,NW,315,0.7,2.2,84,0.00,,,0.00,WUHU216HW,2013-01-02 23:14:00,
2013-01-02 18:17:00,38.9,34.5,30.05,NW,321,1.5,2.2,84,0.00,,,0.00,WUHU216HW,2013-01-02 23:17:00,
2013-01-02 18:18:00,38.7,34.3,30.05,North,0,1.6,2.0,84,0.00,,,0.00,WUHU216HW,2013-01-02 23:18:00,
2013-01-02 18:19:00,38.7,34.3,30.05,North,0,2.9,2.9,84,0.00,,,0.00,WUHU216HW,2013-01-02 23:19:00,
2013-01-02 18:20:00,38.7,34.3,30.05,North,0,2.9,2.9,84,0.00,,,0.00,WUHU216HW,2013-01-02 23:20:00,
2013-01-02 18:23:00,38.9,34.5,30.05,NNW,338,0.4,2.9,84,0.00,,,0.00,WUHU216HW,2013-01-02 23:23:00,
2013-01-02 18:24:00,38.7,34.3,30.05,NW,314,0.6,2.9,84,0.00,,,0.00,WUHU216HW,2013-01-02 23:24:00,
2013-01-02 18:25:00,38.7,34.3,30.05,NW,314,0.6,2.9,84,0.00,,,0.00,WUHU216HW,2013-01-02 23:25:00,
2013-01-02 18:29:00,38.7,34.3,30.05,NW,315,1.5,2.9,84,0.00,,,0.00,WUHU216HW,2013-01-02 23:29:00,
2013-01-02 18:31:00,38.7,34.3,30.05,East,90,0.4,1.8,84,0.00,,,0.00,WUHU216HW,2013-01-02 23:31:00,
2013-01-02 18:34:00,38.7,34.3,30.05,WSW,248,1.1,1.8,84,0.00,,,0.00,WUHU216HW,2013-01-02 23:34:00,
2013-01-02 18:37:00,38.7,34.3,30.06,North,0,0.4,1.8,84,0.00,,,0.00,WUHU216HW,2013-01-02 23:37:00,
2013-01-02 18:40:00,38.7,34.6,30.05,North,0,0.8,1.3,85,0.00,,,0.00,WUHU216HW,2013-01-02 23:40:00,
2013-01-02 18:42:00,38.7,34.3,30.05,NNW,338,1.1,1.3,84,0.00,,,0.00,WUHU216HW,2013-01-02 23:42:00,
2013-01-02 18:45:00,38.7,34.6,30.05,NW,315,0.2,1.3,85,0.00,,,0.00,WUHU216HW,2013-01-02 23:45:00,
2013-01-02 18:46:00,38.7,34.6,30.05,NNW,338,0.4,1.3,85,0.00,,,0.00,WUHU216HW,2013-01-02 23:46:00,
2013-01-02 18:47:00,38.7,34.6,30.05,NNW,338,0.4,1.3,85,0.00,,,0.00,WUHU216HW,2013-01-02 23:47:00,
2013-01-02 18:49:00,38.7,34.6,30.05,NNW,338,0.0,1.1,85,0.00,,,0.00,WUHU216HW,2013-01-02 23:49:00,
2013-01-02 18:50:00,38.7,34.6,30.04,North,0,0.0,1.1,85,0.00,,,0.00,WUHU216HW,2013-01-02 23:50:00,
2013-01-02 18:51:00,38.7,34.3,30.05,NNW,346,0.8,1.3,84,0.00,,,0.00,WUHU216HW,2013-01-02 23:51:00,
2013-01-02 18:54:00,38.7,34.3,30.05,ENE,68,0.0,1.3,84,0.00,,,0.00,WUHU216HW,2013-01-02 23:54:00,
2013-01-02 18:56:00,38.7,34.6,30.05,North,0,0.4,1.3,85,0.00,,,0.00,WUHU216HW,2013-01-02 23:56:00,
2013-01-02 18:57:00,38.7,34.6,30.05,WNW,293,1.3,1.3,85,0.00,,,0.00,WUHU216HW,2013-01-02 23:57:00,
2013-01-02 18:59:00,38.7,34.6,30.05,NNW,338,0.7,1.3,85,0.00,,,0.00,WUHU216HW,2013-01-02 23:59:00,
2013-01-02 19:01:00,38.7,34.6,30.05,NNW,338,0.0,1.3,85,0.00,,,0.00,WUHU216HW,2013-01-03 00:01:00,
2013-01-02 19:02:00,38.7,34.6,30.05,NNW,338,0.0,1.3,85,0.00,,,0.00,WUHU216HW,2013-01-03 00:02:00,
2013-01-02 19:04:00,38.7,34.6,30.06,NW,315,1.3,1.3,85,0.00,,,0.00,WUHU216HW,2013-01-03 00:04:00,
2013-01-02 19:06:00,38.7,34.6,30.06,North,0,0.2,1.3,85,0.00,,,0.00,WUHU216HW,2013-01-03 00:06:00,
2013-01-02 19:07:00,38.7,34.6,30.06,NW,315,0.4,1.3,85,0.00,,,0.00,WUHU216HW,2013-01-03 00:07:00,
2013-01-02 19:10:00,38.7,34.6,30.06,NNW,338,0.4,1.3,85,0.00,,,0.00,WUHU216HW,2013-01-03 00:10:00,
2013-01-02 19:11:00,38.5,34.4,30.05,NNW,338,1.1,1.3,85,0.00,,,0.00,WUHU216HW,2013-01-03 00:11:00,
2013-01-02 19:12:00,38.5,34.4,30.06,NNW,338,0.9,1.3,85,0.00,,,0.00,WUHU216HW,2013-01-03 00:12:00,
2013-01-02 19:13:00,38.5,34.4,30.06,NNW,338,0.9,1.3,85,0.00,,,0.00,WUHU216HW,2013-01-03 00:13:00,
2013-01-02 19:15:00,38.5,34.4,30.06,WNW,293,0.4,1.1,85,0.00,,,0.00,WUHU216HW,2013-01-03 00:15:00,
2013-01-02 19:17:00,38.5,34.4,30.06,NNW,338,0.9,1.1,85,0.00,,,0.00,WUHU216HW,2013-01-03 00:17:00,
2013-01-02 19:18:00,38.5,34.4,30.06,NW,315,0.4,1.1,85,0.00,,,0.00,WUHU216HW,2013-01-03 00:18:00,
2013-01-02 19:21:00,38.5,34.4,30.06,North,0,1.6,1.6,85,0.00,,,0.00,WUHU216HW,2013-01-03 00:21:00,
2013-01-02 19:22:00,38.5,34.4,30.06,North,0,0.9,1.6,85,0.00,,,0.00,WUHU216HW,2013-01-03 00:22:00,
2013-01-02 19:23:00,38.5,34.4,30.06,West,270,1.1,1.6,85,0.00,,,0.00,WUHU216HW,2013-01-03 00:23:00,
2013-01-02 19:27:00,38.5,34.4,30.07,NNW,343,0.8,1.6,85,0.00,,,0.00,WUHU216HW,2013-01-03 00:27:00,
2013-01-02 19:28:00,38.5,34.4,30.07,WNW,293,1.3,1.6,85,0.00,,,0.00,WUHU216HW,2013-01-03 00:28:00,
2013-01-02 19:32:00,38.5,34.7,30.06,North,0,1.1,1.3,86,0.00,,,0.00,WUHU216HW,2013-01-03 00:32:00,
2013-01-02 19:34:00,38.5,34.7,30.06,North,0,1.1,1.3,86,0.00,,,0.00,WUHU216HW,2013-01-03 00:34:00,
2013-01-02 19:37:00,38.3,34.5,30.06,NNE,23,0.0,1.3,86,0.00,,,0.00,WUHU216HW,2013-01-03 00:37:00,
2013-01-02 19:38:00,38.3,34.5,30.06,NNE,23,0.0,1.1,86,0.00,,,0.00,WUHU216HW,2013-01-03 00:38:00,
2013-01-02 19:39:00,38.3,34.5,30.06,NNE,23,0.0,1.1,86,0.00,,,0.00,WUHU216HW,2013-01-03 00:39:00,
2013-01-02 19:42:00,38.3,34.5,30.07,North,0,1.8,1.8,86,0.00,,,0.00,WUHU216HW,2013-01-03 00:42:00,
2013-01-02 19:44:00,38.3,34.5,30.07,NNW,338,2.5,2.5,86,0.00,,,0.00,WUHU216HW,2013-01-03 00:44:00,
2013-01-02 19:46:00,38.3,34.5,30.07,NW,315,0.8,2.5,86,0.00,,,0.00,WUHU216HW,2013-01-03 00:46:00,
2013-01-02 19:48:00,38.3,34.5,30.07,NW,315,2.0,2.5,86,0.00,,,0.00,WUHU216HW,2013-01-03 00:48:00,
2013-01-02 19:49:00,38.3,34.5,30.07,NW,315,2.0,2.5,86,0.00,,,0.00,WUHU216HW,2013-01-03 00:49:00,
2013-01-02 19:50:00,38.3,34.5,30.06,NW,315,2.9,2.9,86,0.00,,,0.00,WUHU216HW,2013-01-03 00:50:00,
2013-01-02 19:51:00,38.3,34.5,30.06,NW,322,2.1,2.9,86,0.00,,,0.00,WUHU216HW,2013-01-03 00:51:00,
2013-01-02 19:54:00,38.3,34.2,30.06,North,0,0.7,2.9,85,0.00,,,0.00,WUHU216HW,2013-01-03 00:54:00,
2013-01-02 19:55:00,38.3,34.2,30.06,NE,45,0.0,2.9,85,0.00,,,0.00,WUHU216HW,2013-01-03 00:55:00,
2013-01-02 19:56:00,38.3,34.2,30.06,NNW,338,0.9,2.9,85,0.00,,,0.00,WUHU216HW,2013-01-03 00:56:00,
2013-01-02 19:59:00,38.3,34.2,30.07,NNW,338,0.9,2.9,85,0.00,,,0.00,WUHU216HW,2013-01-03 00:59:00,
2013-01-02 20:00:00,38.3,34.2,30.07,NNW,338,0.0,1.1,85,0.00,,,0.00,WUHU216HW,2013-01-03 01:00:00,
2013-01-02 20:01:00,38.3,34.5,30.07,NNW,338,0.0,0.9,86,0.00,,,0.00,WUHU216HW,2013-01-03 01:01:00,
2013-01-02 20:04:00,38.3,34.5,30.07,NW,315,0.0,0.9,86,0.00,,,0.00,WUHU216HW,2013-01-03 01:04:00,
2013-01-02 20:06:00,38.3,34.5,30.06,NW,315,0.0,0.9,86,0.00,,,0.00,WUHU216HW,2013-01-03 01:06:00,
2013-01-02 20:07:00,38.3,34.5,30.06,NW,315,0.0,0.9,86,0.00,,,0.00,WUHU216HW,2013-01-03 01:07:00,
2013-01-02 20:11:00,38.3,34.5,30.05,SE,135,1.8,1.8,86,0.00,,,0.00,WUHU216HW,2013-01-03 01:11:00,
2013-01-02 20:12:00,38.3,34.5,30.05,SE,131,1.1,1.8,86,0.00,,,0.00,WUHU216HW,2013-01-03 01:12:00,
2013-01-02 20:16:00,38.3,34.5,30.07,NNW,338,1.3,1.8,86,0.00,,,0.00,WUHU216HW,2013-01-03 01:16:00,
2013-01-02 20:17:00,38.2,34.3,30.07,NW,315,0.4,1.8,86,0.00,,,0.00,WUHU216HW,2013-01-03 01:17:00,
2013-01-02 20:18:00,38.2,34.3,30.07,NW,315,0.4,1.8,86,0.00,,,0.00,WUHU216HW,2013-01-03 01:18:00,
2013-01-02 20:21:00,38.2,34.3,30.07,North,0,0.0,1.8,86,0.00,,,0.00,WUHU216HW,2013-01-03 01:21:00,
2013-01-02 20:22:00,38.2,34.3,30.07,NW,315,0.8,1.8,86,0.00,,,0.00,WUHU216HW,2013-01-03 01:22:00,
2013-01-02 20:23:00,38.2,34.3,30.07,NW,315,0.8,1.8,86,0.00,,,0.00,WUHU216HW,2013-01-03 01:23:00,
2013-01-02 20:24:00,38.2,34.3,30.08,WNW,293,0.7,1.6,86,0.00,,,0.00,WUHU216HW,2013-01-03 01:24:00,
2013-01-02 20:26:00,38.2,34.3,30.08,WNW,293,0.0,1.1,86,0.00,,,0.00,WUHU216HW,2013-01-03 01:26:00,
2013-01-02 20:27:00,38.2,34.3,30.07,WNW,293,0.0,1.1,86,0.00,,,0.00,WUHU216HW,2013-01-03 01:27:00,
2013-01-02 20:28:00,38.2,34.3,30.07,WNW,293,0.0,1.1,86,0.00,,,0.00,WUHU216HW,2013-01-03 01:28:00,
2013-01-02 20:29:00,38.2,34.3,30.07,WNW,293,0.0,1.1,86,0.00,,,0.00,WUHU216HW,2013-01-03 01:29:00,
2013-01-02 20:31:00,38.0,34.1,30.08,WNW,293,0.9,0.9,86,0.00,,,0.00,WUHU216HW,2013-01-03 01:31:00,
2013-01-02 20:32:00,38.0,34.1,30.08,WNW,293,0.9,0.9,86,0.00,,,0.00,WUHU216HW,2013-01-03 01:32:00,
2013-01-02 20:34:00,38.0,34.4,30.08,NW,315,2.2,2.2,87,0.00,,,0.00,WUHU216HW,2013-01-03 01:34:00,
2013-01-02 20:35:00,38.0,34.4,30.08,NW,315,1.2,2.2,87,0.00,,,0.00,WUHU216HW,2013-01-03 01:35:00,
2013-01-02 20:37:00,38.0,34.4,30.07,WNW,293,0.2,2.2,87,0.00,,,0.00,WUHU216HW,2013-01-03 01:37:00,
2013-01-02 20:39:00,38.0,34.4,30.07,WNW,293,0.0,2.2,87,0.00,,,0.00,WUHU216HW,2013-01-03 01:39:00,
2013-01-02 20:41:00,38.0,34.4,30.08,WNW,293,0.9,2.2,87,0.00,,,0.00,WUHU216HW,2013-01-03 01:41:00,
2013-01-02 20:42:00,38.0,34.4,30.08,WNW,293,0.8,2.2,87,0.00,,,0.00,WUHU216HW,2013-01-03 01:42:00,
2013-01-02 20:43:00,38.0,34.4,30.08,WNW,293,0.8,2.2,87,0.00,,,0.00,WUHU216HW,2013-01-03 01:43:00,
2013-01-02 20:44:00,38.0,34.4,30.08,WNW,299,0.6,0.9,87,0.00,,,0.00,WUHU216HW,2013-01-03 01:44:00,
2013-01-02 20:46:00,38.0,34.4,30.08,West,270,0.0,0.9,87,0.00,,,0.00,WUHU216HW,2013-01-03 01:46:00,
2013-01-02 20:48:00,38.0,34.4,30.08,West,270,0.0,0.9,87,0.00,,,0.00,WUHU216HW,2013-01-03 01:48:00,
2013-01-02 20:50:00,38.0,34.4,30.08,WNW,293,0.0,0.9,87,0.00,,,0.00,WUHU216HW,2013-01-03 01:50:00,
2013-01-02 20:52:00,38.0,34.4,30.08,WNW,293,1.1,1.1,87,0.00,,,0.00,WUHU216HW,2013-01-03 01:52:00,
2013-01-02 20:53:00,38.0,34.4,30.09,NW,315,0.9,1.1,87,0.00,,,0.00,WUHU216HW,2013-01-03 01:53:00,
2013-01-02 20:54:00,38.0,34.4,30.08,NW,315,0.0,1.1,87,0.00,,,0.00,WUHU216HW,2013-01-03 01:54:00,
2013-01-02 20:55:00,38.0,34.4,30.08,NW,315,0.0,1.1,87,0.00,,,0.00,WUHU216HW,2013-01-03 01:55:00,
2013-01-02 20:57:00,38.0,34.4,30.08,NW,315,0.0,1.1,87,0.00,,,0.00,WUHU216HW,2013-01-03 01:57:00,
2013-01-02 20:59:00,37.8,34.2,30.08,NNE,23,0.0,1.1,87,0.00,,,0.00,WUHU216HW,2013-01-03 01:59:00,
2013-01-02 21:00:00,37.8,34.2,30.08,NNE,23,0.0,1.1,87,0.00,,,0.00,WUHU216HW,2013-01-03 02:00:00,
2013-01-02 21:02:00,37.8,34.2,30.08,NNE,23,0.0,0.9,87,0.00,,,0.00,WUHU216HW,2013-01-03 02:02:00,
2013-01-02 21:05:00,37.8,34.2,30.08,WNW,293,0.9,0.9,87,0.00,,,0.00,WUHU216HW,2013-01-03 02:05:00,
2013-01-02 21:06:00,38.0,34.4,30.08,WNW,293,0.9,0.9,87,0.00,,,0.00,WUHU216HW,2013-01-03 02:06:00,
2013-01-02 21:08:00,37.8,34.2,30.08,WNW,293,0.0,0.9,87,0.00,,,0.00,WUHU216HW,2013-01-03 02:08:00,
2013-01-02 21:10:00,37.8,34.2,30.08,WNW,293,0.0,0.9,87,0.00,,,0.00,WUHU216HW,2013-01-03 02:10:00,
2013-01-02 21:11:00,37.8,34.2,30.08,WNW,293,0.0,0.9,87,0.00,,,0.00,WUHU216HW,2013-01-03 02:11:00,
2013-01-02 21:12:00,37.8,34.2,30.08,NW,315,0.4,0.9,87,0.00,,,0.00,WUHU216HW,2013-01-03 02:12:00,
2013-01-02 21:14:00,37.8,34.2,30.08,NW,315,1.1,1.1,87,0.00,,,0.00,WUHU216HW,2013-01-03 02:14:00,
2013-01-02 21:16:00,37.8,34.2,30.08,NW,315,0.9,1.1,87,0.00,,,0.00,WUHU216HW,2013-01-03 02:16:00,
2013-01-02 21:17:00,37.8,34.2,30.08,NW,315,0.9,1.1,87,0.00,,,0.00,WUHU216HW,2013-01-03 02:17:00,
2013-01-02 21:18:00,37.8,34.2,30.08,NW,308,0.6,1.1,87,0.00,,,0.00,WUHU216HW,2013-01-03 02:18:00,
2013-01-02 21:19:00,37.8,34.2,30.08,WNW,293,0.4,1.1,87,0.00,,,0.00,WUHU216HW,2013-01-03 02:19:00,
2013-01-02 21:22:00,37.8,34.2,30.08,North,0,0.0,1.1,87,0.00,,,0.00,WUHU216HW,2013-01-03 02:22:00,
2013-01-02 21:23:00,37.8,34.2,30.08,North,0,0.0,1.1,87,0.00,,,0.00,WUHU216HW,2013-01-03 02:23:00,
2013-01-02 21:24:00,37.8,34.2,30.08,North,0,0.0,0.9,87,0.00,,,0.00,WUHU216HW,2013-01-03 02:24:00,
2013-01-02 21:27:00,37.8,34.2,30.08,North,0,0.0,0.0,87,0.00,,,0.00,WUHU216HW,2013-01-03 02:27:00,
2013-01-02 21:29:00,37.8,34.2,30.08,NNW,338,0.4,0.4,87,0.00,,,0.00,WUHU216HW,2013-01-03 02:29:00,
2013-01-02 21:32:00,37.8,34.2,30.08,NW,315,0.4,0.9,87,0.00,,,0.00,WUHU216HW,2013-01-03 02:32:00,
2013-01-02 21:33:00,37.8,34.2,30.08,NW,315,0.4,0.9,87,0.00,,,0.00,WUHU216HW,2013-01-03 02:33:00,
2013-01-02 21:34:00,37.8,34.2,30.08,ESE,113,0.4,0.9,87,0.00,,,0.00,WUHU216HW,2013-01-03 02:34:00,
2013-01-02 21:35:00,37.8,34.2,30.08,ESE,113,0.4,0.9,87,0.00,,,0.00,WUHU216HW,2013-01-03 02:35:00,
2013-01-02 21:38:00,37.8,34.2,30.08,ESE,113,0.7,0.9,87,0.00,,,0.00,WUHU216HW,2013-01-03 02:38:00,
2013-01-02 21:40:00,37.8,34.2,30.08,NNW,338,1.1,1.1,87,0.00,,,0.00,WUHU216HW,2013-01-03 02:40:00,
2013-01-02 21:43:00,37.8,34.2,30.08,NW,308,0.3,1.1,87,0.00,,,0.00,WUHU216HW,2013-01-03 02:43:00,
2013-01-02 21:46:00,37.8,34.2,30.08,West,270,0.4,1.1,87,0.00,,,0.00,WUHU216HW,2013-01-03 02:46:00,
2013-01-02 21:47:00,37.8,34.2,30.08,West,270,0.4,1.1,87,0.00,,,0.00,WUHU216HW,2013-01-03 02:47:00,
2013-01-02 21:48:00,37.8,34.2,30.08,West,270,0.4,1.1,87,0.00,,,0.00,WUHU216HW,2013-01-03 02:48:00,
2013-01-02 21:49:00,37.8,34.2,30.08,WNW,293,0.0,0.4,87,0.00,,,0.00,WUHU216HW,2013-01-03 02:49:00,
2013-01-02 21:52:00,37.8,34.2,30.08,North,350,0.8,0.9,87,0.00,,,0.00,WUHU216HW,2013-01-03 02:52:00,
2013-01-02 21:53:00,37.8,34.2,30.08,WNW,293,1.1,1.1,87,0.00,,,0.00,WUHU216HW,2013-01-03 02:53:00,
2013-01-02 21:54:00,37.8,34.2,30.08,WNW,293,1.3,1.3,87,0.00,,,0.00,WUHU216HW,2013-01-03 02:54:00,
2013-01-02 21:57:00,37.8,34.2,30.08,WNW,293,0.7,1.3,87,0.00,,,0.00,WUHU216HW,2013-01-03 02:57:00,
2013-01-02 21:58:00,37.8,34.2,30.08,NNW,338,1.3,1.3,87,0.00,,,0.00,WUHU216HW,2013-01-03 02:58:00,
2013-01-02 21:59:00,37.8,34.2,30.08,NNW,343,0.8,1.3,87,0.00,,,0.00,WUHU216HW,2013-01-03 02:59:00,
2013-01-02 22:00:00,37.8,34.2,30.08,North,0,1.1,1.3,87,0.00,,,0.00,WUHU216HW,2013-01-03 03:00:00,
2013-01-02 22:02:00,37.6,34.0,30.07,North,0,0.2,1.3,87,0.00,,,0.00,WUHU216HW,2013-01-03 03:02:00,
2013-01-02 22:03:00,37.6,34.0,30.07,North,0,0.2,1.3,87,0.00,,,0.00,WUHU216HW,2013-01-03 03:03:00,
2013-01-02 22:05:00,37.6,34.0,30.08,NNW,338,0.2,1.3,87,0.00,,,0.00,WUHU216HW,2013-01-03 03:05:00,
2013-01-02 22:07:00,37.6,34.0,30.08,NW,315,0.4,1.1,87,0.00,,,0.00,WUHU216HW,2013-01-03 03:07:00,
2013-01-02 22:08:00,37.6,34.0,30.08,NW,315,0.4,1.1,87,0.00,,,0.00,WUHU216HW,2013-01-03 03:08:00,
2013-01-02 22:10:00,37.6,34.0,30.08,NW,315,0.4,0.7,87,0.00,,,0.00,WUHU216HW,2013-01-03 03:10:00,
2013-01-02 22:12:00,37.6,34.0,30.08,North,0,0.9,1.1,87,0.00,,,0.00,WUHU216HW,2013-01-03 03:12:00,
2013-01-02 22:14:00,37.6,34.0,30.08,North,0,0.9,1.1,87,0.00,,,0.00,WUHU216HW,2013-01-03 03:14:00,
2013-01-02 22:15:00,37.6,34.0,30.08,West,270,0.2,1.1,87,0.00,,,0.00,WUHU216HW,2013-01-03 03:15:00,
2013-01-02 22:17:00,37.6,34.0,30.08,NW,315,0.0,1.1,87,0.00,,,0.00,WUHU216HW,2013-01-03 03:17:00,
2013-01-02 22:19:00,37.6,34.0,30.08,WNW,293,0.4,1.1,87,0.00,,,0.00,WUHU216HW,2013-01-03 03:19:00,
2013-01-02 22:20:00,37.4,33.8,30.08,WNW,293,0.4,0.9,87,0.00,,,0.00,WUHU216HW,2013-01-03 03:20:00,
2013-01-02 22:21:00,37.4,33.8,30.08,WNW,293,0.4,0.9,87,0.00,,,0.00,WUHU216HW,2013-01-03 03:21:00,
2013-01-02 22:22:00,37.6,34.0,30.08,WNW,293,0.0,0.4,87,0.00,,,0.00,WUHU216HW,2013-01-03 03:22:00,
2013-01-02 22:25:00,37.4,33.8,30.07,SE,135,2.0,2.0,87,0.00,,,0.00,WUHU216HW,2013-01-03 03:25:00,
2013-01-02 22:26:00,37.6,34.0,30.06,SE,135,1.8,2.0,87,0.00,,,0.00,WUHU216HW,2013-01-03 03:26:00,
2013-01-02 22:28:00,37.4,33.8,30.06,SE,135,1.0,2.0,87,0.00,,,0.00,WUHU216HW,2013-01-03 03:28:00,
2013-01-02 22:30:00,37.4,33.8,30.07,NW,315,0.0,2.0,87,0.00,,,0.00,WUHU216HW,2013-01-03 03:30:00,
2013-01-02 22:31:00,37.6,34.0,30.07,NW,315,0.9,2.0,87,0.00,,,0.00,WUHU216HW,2013-01-03 03:31:00,
2013-01-02 22:33:00,37.4,33.8,30.07,NNW,338,0.6,2.0,87,0.00,,,0.00,WUHU216HW,2013-01-03 03:33:00,
2013-01-02 22:35:00,37.4,33.8,30.07,NNW,338,0.4,2.0,87,0.00,,,0.00,WUHU216HW,2013-01-03 03:35:00,
2013-01-02 22:38:00,37.4,33.8,30.07,NW,315,0.0,0.9,87,0.00,,,0.00,WUHU216HW,2013-01-03 03:38:00,
2013-01-02 22:39:00,37.4,33.8,30.07,NW,315,0.0,0.9,87,0.00,,,0.00,WUHU216HW,2013-01-03 03:39:00,
2013-01-02 22:40:00,37.4,33.8,30.07,NW,315,0.4,0.9,87,0.00,,,0.00,WUHU216HW,2013-01-03 03:40:00,
2013-01-02 22:41:00,37.4,33.8,30.07,NW,315,0.4,0.7,87,0.00,,,0.00,WUHU216HW,2013-01-03 03:41:00,
2013-01-02 22:44:00,37.4,33.8,30.07,NW,315,0.2,0.4,87,0.00,,,0.00,WUHU216HW,2013-01-03 03:44:00,
2013-01-02 22:45:00,37.4,33.8,30.07,NW,315,0.2,0.4,87,0.00,,,0.00,WUHU216HW,2013-01-03 03:45:00,
2013-01-02 22:46:00,37.4,33.8,30.07,NW,315,0.2,0.4,87,0.00,,,0.00,WUHU216HW,2013-01-03 03:46:00,
2013-01-02 22:47:00,37.4,33.8,30.07,NW,315,0.2,0.4,87,0.00,,,0.00,WUHU216HW,2013-01-03 03:47:00,
2013-01-02 22:50:00,37.4,33.8,30.07,NW,315,0.2,0.4,87,0.00,,,0.00,WUHU216HW,2013-01-03 03:50:00,
2013-01-02 22:51:00,37.4,33.8,30.07,NW,315,0.2,0.2,87,0.00,,,0.00,WUHU216HW,2013-01-03 03:51:00,
2013-01-02 22:59:00,37.3,33.7,30.08,NNW,338,1.3,1.3,87,0.00,,,0.00,WUHU216HW,2013-01-03 03:59:00,
2013-01-02 23:00:00,37.3,33.7,30.08,NNW,338,1.3,1.3,87,0.00,,,0.00,WUHU216HW,2013-01-03 04:00:00,
2013-01-02 23:01:00,37.3,33.7,30.08,NNW,332,0.8,1.3,87,0.00,,,0.00,WUHU216HW,2013-01-03 04:01:00,
2013-01-02 23:04:00,37.3,33.7,30.08,NNW,338,0.3,1.3,87,0.00,,,0.00,WUHU216HW,2013-01-03 04:04:00,
2013-01-02 23:05:00,37.3,33.7,30.08,NNW,338,0.3,1.3,87,0.00,,,0.00,WUHU216HW,2013-01-03 04:05:00,
2013-01-02 23:06:00,37.3,33.7,30.08,NNW,338,0.4,1.3,87,0.00,,,0.00,WUHU216HW,2013-01-03 04:06:00,
2013-01-02 23:10:00,37.3,34.0,30.08,NW,315,1.1,2.2,88,0.00,,,0.00,WUHU216HW,2013-01-03 04:10:00,
2013-01-02 23:11:00,37.3,34.0,30.08,WNW,300,2.0,2.2,88,0.00,,,0.00,WUHU216HW,2013-01-03 04:11:00,
2013-01-02 23:12:00,37.3,34.0,30.08,WNW,302,1.5,2.2,88,0.00,,,0.00,WUHU216HW,2013-01-03 04:12:00,
2013-01-02 23:15:00,37.3,34.0,30.09,NW,309,0.9,2.2,88,0.00,,,0.00,WUHU216HW,2013-01-03 04:15:00,
2013-01-02 23:16:00,37.3,34.0,30.09,NW,321,0.8,2.2,88,0.00,,,0.00,WUHU216HW,2013-01-03 04:16:00,
2013-01-02 23:17:00,37.3,34.0,30.09,NW,315,2.0,2.2,88,0.00,,,0.00,WUHU216HW,2013-01-03 04:17:00,
2013-01-02 23:20:00,37.3,34.0,30.09,NW,315,3.4,3.4,88,0.00,,,0.00,WUHU216HW,2013-01-03 04:20:00,
2013-01-02 23:21:00,37.3,34.0,30.09,NW,315,3.4,3.4,88,0.00,,,0.00,WUHU216HW,2013-01-03 04:21:00,
2013-01-02 23:22:00,37.3,33.7,30.09,North,0,2.5,4.0,87,0.00,,,0.00,WUHU216HW,2013-01-03 04:22:00,
2013-01-02 23:26:00,37.3,33.7,30.08,ENE,68,0.9,4.0,87,0.00,,,0.00,WUHU216HW,2013-01-03 04:26:00,
2013-01-02 23:27:00,37.3,33.7,30.08,ENE,63,0.6,4.0,87,0.00,,,0.00,WUHU216HW,2013-01-03 04:27:00,
2013-01-02 23:28:00,37.3,33.7,30.08,NNW,338,0.4,4.0,87,0.00,,,0.00,WUHU216HW,2013-01-03 04:28:00,
2013-01-02 23:31:00,37.3,33.7,30.08,North,352,1.1,4.0,87,0.00,,,0.00,WUHU216HW,2013-01-03 04:31:00,
2013-01-02 23:32:00,37.3,33.7,30.08,NW,315,1.1,2.0,87,0.00,,,0.00,WUHU216HW,2013-01-03 04:32:00,
2013-01-02 23:33:00,37.3,33.7,30.08,NW,315,1.1,2.0,87,0.00,,,0.00,WUHU216HW,2013-01-03 04:33:00,
2013-01-02 23:36:00,37.3,33.7,30.09,NNW,338,1.8,2.0,87,0.00,,,0.00,WUHU216HW,2013-01-03 04:36:00,
2013-01-02 23:38:00,37.3,33.7,30.08,NNW,329,1.5,2.0,87,0.00,,,0.00,WUHU216HW,2013-01-03 04:38:00,
2013-01-02 23:43:00,37.3,33.7,30.09,NNW,338,1.6,2.2,87,0.00,,,0.00,WUHU216HW,2013-01-03 04:43:00,
2013-01-02 23:44:00,37.3,33.7,30.09,NW,315,2.2,2.2,87,0.00,,,0.00,WUHU216HW,2013-01-03 04:44:00,
2013-01-02 23:48:00,37.3,33.7,30.09,North,0,2.7,2.7,87,0.00,,,0.00,WUHU216HW,2013-01-03 04:48:00,
2013-01-02 23:49:00,37.3,33.7,30.09,North,352,2.2,2.7,87,0.00,,,0.00,WUHU216HW,2013-01-03 04:49:00,
2013-01-02 23:50:00,37.3,33.7,30.09,NNW,327,1.5,2.7,87,0.00,,,0.00,WUHU216HW,2013-01-03 04:50:00,
2013-01-02 23:53:00,37.3,33.4,30.08,NNW,338,1.8,2.7,86,0.00,,,0.00,WUHU216HW,2013-01-03 04:53:00,
2013-01-02 23:54:00,37.3,33.4,30.08,NNW,338,1.8,2.7,86,0.00,,,0.00,WUHU216HW,2013-01-03 04:54:00,
2013-01-02 23:55:00,37.3,33.7,30.08,WNW,293,1.1,2.7,87,0.00,,,0.00,WUHU216HW,2013-01-03 04:55:00,
2013-01-02 23:59:00,37.1,33.5,30.08,NNW,338,1.3,2.5,87,0.00,,,0.00,WUHU216HW,2013-01-03 04:59:00,